<?xml version="1.0" encoding="UTF-8" standalone="no" ?>
<gpx xmlns="http://www.topografix.com/GPX/1/1" xmlns:xsi="http://www.w3.org/2001/XMLSchema-instance" xsi:schemaLocation="http://www.topografix.com/GPX/1/1 http://www.topografix.com/GPX/1/1/gpx.xsd" version="1.1" creator="VisuGPX - https://www.visugpx.com">
  <metadata>
    <name>Dipti et Ténébra</name>
    <desc><![CDATA[Avec trot et petit galop décidé par Dipti]]></desc>
  </metadata>
  <trk>
    <name><![CDATA[Untitled]]></name>
    <trkseg>
      <trkpt lat="48.70697" lon="1.75507">
        <ele>172.39999389648</ele>
        <time>2014-03-10T10:24:33.000Z</time>
      </trkpt>
      <trkpt lat="48.70692" lon="1.75509">
        <ele>172.60000610352</ele>
        <time>2014-03-10T10:24:35.000Z</time>
      </trkpt>
      <trkpt lat="48.70691" lon="1.75521">
        <ele>172.80000305176</ele>
        <time>2014-03-10T10:24:41.000Z</time>
      </trkpt>
      <trkpt lat="48.70686" lon="1.75535">
        <ele>173.19999694824</ele>
        <time>2014-03-10T10:24:50.000Z</time>
      </trkpt>
      <trkpt lat="48.70683" lon="1.75543">
        <ele>173.60000610352</ele>
        <time>2014-03-10T10:24:56.000Z</time>
      </trkpt>
      <trkpt lat="48.70683" lon="1.75545">
        <ele>173.60000610352</ele>
        <time>2014-03-10T10:24:57.000Z</time>
      </trkpt>
      <trkpt lat="48.70679" lon="1.75553">
        <ele>173.80000305176</ele>
        <time>2014-03-10T10:25:03.000Z</time>
      </trkpt>
      <trkpt lat="48.70678" lon="1.75555">
        <ele>174</ele>
        <time>2014-03-10T10:25:04.000Z</time>
      </trkpt>
      <trkpt lat="48.70667" lon="1.75566">
        <ele>174.60000610352</ele>
        <time>2014-03-10T10:25:12.000Z</time>
      </trkpt>
      <trkpt lat="48.70663" lon="1.75575">
        <ele>175.19999694824</ele>
        <time>2014-03-10T10:25:19.000Z</time>
      </trkpt>
      <trkpt lat="48.70662" lon="1.75579">
        <ele>175.39999389648</ele>
        <time>2014-03-10T10:25:22.000Z</time>
      </trkpt>
      <trkpt lat="48.70659" lon="1.75586">
        <ele>175.80000305176</ele>
        <time>2014-03-10T10:25:26.000Z</time>
      </trkpt>
      <trkpt lat="48.70655" lon="1.75597">
        <ele>176.19999694824</ele>
        <time>2014-03-10T10:25:33.000Z</time>
      </trkpt>
      <trkpt lat="48.70651" lon="1.75605">
        <ele>176.60000610352</ele>
        <time>2014-03-10T10:25:38.000Z</time>
      </trkpt>
      <trkpt lat="48.70645" lon="1.75615">
        <ele>177.19999694824</ele>
        <time>2014-03-10T10:25:44.000Z</time>
      </trkpt>
      <trkpt lat="48.7064" lon="1.75626">
        <ele>178</ele>
        <time>2014-03-10T10:25:50.000Z</time>
      </trkpt>
      <trkpt lat="48.70637" lon="1.75634">
        <ele>178.19999694824</ele>
        <time>2014-03-10T10:25:54.000Z</time>
      </trkpt>
      <trkpt lat="48.70637" lon="1.75637">
        <ele>178.39999389648</ele>
        <time>2014-03-10T10:25:56.000Z</time>
      </trkpt>
      <trkpt lat="48.70639" lon="1.75646">
        <ele>178.19999694824</ele>
        <time>2014-03-10T10:26:01.000Z</time>
      </trkpt>
      <trkpt lat="48.7064" lon="1.75653">
        <ele>178.19999694824</ele>
        <time>2014-03-10T10:26:04.000Z</time>
      </trkpt>
      <trkpt lat="48.70637" lon="1.75658">
        <ele>178.60000610352</ele>
        <time>2014-03-10T10:26:08.000Z</time>
      </trkpt>
      <trkpt lat="48.70636" lon="1.75658">
        <ele>178.60000610352</ele>
        <time>2014-03-10T10:26:11.000Z</time>
      </trkpt>
      <trkpt lat="48.70634" lon="1.75654">
        <ele>178.80000305176</ele>
        <time>2014-03-10T10:26:38.000Z</time>
      </trkpt>
      <trkpt lat="48.70644" lon="1.75653">
        <ele>177.60000610352</ele>
        <time>2014-03-10T10:26:45.000Z</time>
      </trkpt>
      <trkpt lat="48.70647" lon="1.75653">
        <ele>177.19999694824</ele>
        <time>2014-03-10T10:26:50.000Z</time>
      </trkpt>
      <trkpt lat="48.70635" lon="1.75647">
        <ele>178.60000610352</ele>
        <time>2014-03-10T10:27:47.000Z</time>
      </trkpt>
      <trkpt lat="48.70638" lon="1.75652">
        <ele>178.19999694824</ele>
        <time>2014-03-10T10:27:52.000Z</time>
      </trkpt>
      <trkpt lat="48.70637" lon="1.75652">
        <ele>178.39999389648</ele>
        <time>2014-03-10T10:27:54.000Z</time>
      </trkpt>
      <trkpt lat="48.70634" lon="1.75652">
        <ele>178.80000305176</ele>
        <time>2014-03-10T10:27:56.000Z</time>
      </trkpt>
      <trkpt lat="48.70631" lon="1.75653">
        <ele>179.19999694824</ele>
        <time>2014-03-10T10:28:01.000Z</time>
      </trkpt>
      <trkpt lat="48.7064" lon="1.75653">
        <ele>178.19999694824</ele>
        <time>2014-03-10T10:28:13.000Z</time>
      </trkpt>
      <trkpt lat="48.70645" lon="1.75654">
        <ele>177.60000610352</ele>
        <time>2014-03-10T10:28:19.000Z</time>
      </trkpt>
      <trkpt lat="48.70648" lon="1.75653">
        <ele>177.19999694824</ele>
        <time>2014-03-10T10:28:25.000Z</time>
      </trkpt>
      <trkpt lat="48.70646" lon="1.75653">
        <ele>177.39999389648</ele>
        <time>2014-03-10T10:28:31.000Z</time>
      </trkpt>
      <trkpt lat="48.70643" lon="1.75654">
        <ele>177.80000305176</ele>
        <time>2014-03-10T10:28:34.000Z</time>
      </trkpt>
      <trkpt lat="48.70617" lon="1.75638">
        <ele>180.60000610352</ele>
        <time>2014-03-10T10:29:28.000Z</time>
      </trkpt>
      <trkpt lat="48.70612" lon="1.75635">
        <ele>181</ele>
        <time>2014-03-10T10:29:30.000Z</time>
      </trkpt>
      <trkpt lat="48.70606" lon="1.75631">
        <ele>181.60000610352</ele>
        <time>2014-03-10T10:29:35.000Z</time>
      </trkpt>
      <trkpt lat="48.70602" lon="1.7563">
        <ele>182</ele>
        <time>2014-03-10T10:29:38.000Z</time>
      </trkpt>
      <trkpt lat="48.70598" lon="1.75626">
        <ele>182.39999389648</ele>
        <time>2014-03-10T10:29:41.000Z</time>
      </trkpt>
      <trkpt lat="48.70593" lon="1.75621">
        <ele>182.80000305176</ele>
        <time>2014-03-10T10:29:47.000Z</time>
      </trkpt>
      <trkpt lat="48.70587" lon="1.75613">
        <ele>183.19999694824</ele>
        <time>2014-03-10T10:29:53.000Z</time>
      </trkpt>
      <trkpt lat="48.70583" lon="1.75604">
        <ele>183.60000610352</ele>
        <time>2014-03-10T10:29:59.000Z</time>
      </trkpt>
      <trkpt lat="48.70577" lon="1.75596">
        <ele>183.39999389648</ele>
        <time>2014-03-10T10:30:06.000Z</time>
      </trkpt>
      <trkpt lat="48.70572" lon="1.75585">
        <ele>183.19999694824</ele>
        <time>2014-03-10T10:30:14.000Z</time>
      </trkpt>
      <trkpt lat="48.70569" lon="1.75585">
        <ele>183.39999389648</ele>
        <time>2014-03-10T10:30:16.000Z</time>
      </trkpt>
      <trkpt lat="48.70559" lon="1.75582">
        <ele>183.39999389648</ele>
        <time>2014-03-10T10:30:24.000Z</time>
      </trkpt>
      <trkpt lat="48.70551" lon="1.75583">
        <ele>183.80000305176</ele>
        <time>2014-03-10T10:30:30.000Z</time>
      </trkpt>
      <trkpt lat="48.70549" lon="1.75582">
        <ele>183.80000305176</ele>
        <time>2014-03-10T10:30:32.000Z</time>
      </trkpt>
      <trkpt lat="48.70549" lon="1.75576">
        <ele>183.19999694824</ele>
        <time>2014-03-10T10:30:36.000Z</time>
      </trkpt>
      <trkpt lat="48.70547" lon="1.75563">
        <ele>182.19999694824</ele>
        <time>2014-03-10T10:30:43.000Z</time>
      </trkpt>
      <trkpt lat="48.70547" lon="1.75558">
        <ele>181.80000305176</ele>
        <time>2014-03-10T10:30:46.000Z</time>
      </trkpt>
      <trkpt lat="48.70548" lon="1.75554">
        <ele>181.39999389648</ele>
        <time>2014-03-10T10:30:50.000Z</time>
      </trkpt>
      <trkpt lat="48.70546" lon="1.75551">
        <ele>181.19999694824</ele>
        <time>2014-03-10T10:30:54.000Z</time>
      </trkpt>
      <trkpt lat="48.7054" lon="1.75546">
        <ele>181.19999694824</ele>
        <time>2014-03-10T10:30:59.000Z</time>
      </trkpt>
      <trkpt lat="48.70532" lon="1.75544">
        <ele>181.39999389648</ele>
        <time>2014-03-10T10:31:05.000Z</time>
      </trkpt>
      <trkpt lat="48.70529" lon="1.75537">
        <ele>181.19999694824</ele>
        <time>2014-03-10T10:31:09.000Z</time>
      </trkpt>
      <trkpt lat="48.70523" lon="1.75528">
        <ele>180.80000305176</ele>
        <time>2014-03-10T10:31:16.000Z</time>
      </trkpt>
      <trkpt lat="48.70517" lon="1.75524">
        <ele>181</ele>
        <time>2014-03-10T10:31:21.000Z</time>
      </trkpt>
      <trkpt lat="48.70508" lon="1.75515">
        <ele>181.19999694824</ele>
        <time>2014-03-10T10:31:28.000Z</time>
      </trkpt>
      <trkpt lat="48.70507" lon="1.75512">
        <ele>181</ele>
        <time>2014-03-10T10:31:29.000Z</time>
      </trkpt>
      <trkpt lat="48.70499" lon="1.75504">
        <ele>181.19999694824</ele>
        <time>2014-03-10T10:31:36.000Z</time>
      </trkpt>
      <trkpt lat="48.70496" lon="1.75505">
        <ele>181.39999389648</ele>
        <time>2014-03-10T10:31:38.000Z</time>
      </trkpt>
      <trkpt lat="48.70491" lon="1.75505">
        <ele>181.60000610352</ele>
        <time>2014-03-10T10:31:41.000Z</time>
      </trkpt>
      <trkpt lat="48.70485" lon="1.755">
        <ele>181.60000610352</ele>
        <time>2014-03-10T10:31:46.000Z</time>
      </trkpt>
      <trkpt lat="48.70477" lon="1.75499">
        <ele>181.80000305176</ele>
        <time>2014-03-10T10:31:52.000Z</time>
      </trkpt>
      <trkpt lat="48.70472" lon="1.75493">
        <ele>181.60000610352</ele>
        <time>2014-03-10T10:31:57.000Z</time>
      </trkpt>
      <trkpt lat="48.70468" lon="1.75485">
        <ele>181.39999389648</ele>
        <time>2014-03-10T10:32:02.000Z</time>
      </trkpt>
      <trkpt lat="48.70461" lon="1.75478">
        <ele>181.39999389648</ele>
        <time>2014-03-10T10:32:08.000Z</time>
      </trkpt>
      <trkpt lat="48.70457" lon="1.75473">
        <ele>181.39999389648</ele>
        <time>2014-03-10T10:32:13.000Z</time>
      </trkpt>
      <trkpt lat="48.7045" lon="1.75467">
        <ele>181.60000610352</ele>
        <time>2014-03-10T10:32:20.000Z</time>
      </trkpt>
      <trkpt lat="48.70442" lon="1.75465">
        <ele>181.80000305176</ele>
        <time>2014-03-10T10:32:26.000Z</time>
      </trkpt>
      <trkpt lat="48.70437" lon="1.75458">
        <ele>181.80000305176</ele>
        <time>2014-03-10T10:32:33.000Z</time>
      </trkpt>
      <trkpt lat="48.70432" lon="1.75456">
        <ele>182.19999694824</ele>
        <time>2014-03-10T10:32:39.000Z</time>
      </trkpt>
      <trkpt lat="48.70426" lon="1.75445">
        <ele>182.19999694824</ele>
        <time>2014-03-10T10:32:48.000Z</time>
      </trkpt>
      <trkpt lat="48.70425" lon="1.75444">
        <ele>182.19999694824</ele>
        <time>2014-03-10T10:32:49.000Z</time>
      </trkpt>
      <trkpt lat="48.70416" lon="1.75438">
        <ele>182.60000610352</ele>
        <time>2014-03-10T10:32:57.000Z</time>
      </trkpt>
      <trkpt lat="48.70409" lon="1.75433">
        <ele>182.19999694824</ele>
        <time>2014-03-10T10:33:04.000Z</time>
      </trkpt>
      <trkpt lat="48.70401" lon="1.75429">
        <ele>182</ele>
        <time>2014-03-10T10:33:12.000Z</time>
      </trkpt>
      <trkpt lat="48.704" lon="1.75427">
        <ele>182</ele>
        <time>2014-03-10T10:33:14.000Z</time>
      </trkpt>
      <trkpt lat="48.70392" lon="1.75427">
        <ele>181.80000305176</ele>
        <time>2014-03-10T10:33:19.000Z</time>
      </trkpt>
      <trkpt lat="48.70386" lon="1.75422">
        <ele>181.80000305176</ele>
        <time>2014-03-10T10:33:25.000Z</time>
      </trkpt>
      <trkpt lat="48.7038" lon="1.75423">
        <ele>181.60000610352</ele>
        <time>2014-03-10T10:33:29.000Z</time>
      </trkpt>
      <trkpt lat="48.70372" lon="1.75424">
        <ele>181.60000610352</ele>
        <time>2014-03-10T10:33:35.000Z</time>
      </trkpt>
      <trkpt lat="48.70366" lon="1.75419">
        <ele>181.39999389648</ele>
        <time>2014-03-10T10:33:42.000Z</time>
      </trkpt>
      <trkpt lat="48.70361" lon="1.75411">
        <ele>181.19999694824</ele>
        <time>2014-03-10T10:33:48.000Z</time>
      </trkpt>
      <trkpt lat="48.70354" lon="1.75402">
        <ele>181</ele>
        <time>2014-03-10T10:33:56.000Z</time>
      </trkpt>
      <trkpt lat="48.70353" lon="1.75394">
        <ele>181</ele>
        <time>2014-03-10T10:34:01.000Z</time>
      </trkpt>
      <trkpt lat="48.70354" lon="1.75393">
        <ele>181</ele>
        <time>2014-03-10T10:34:02.000Z</time>
      </trkpt>
      <trkpt lat="48.70353" lon="1.75385">
        <ele>180.80000305176</ele>
        <time>2014-03-10T10:34:09.000Z</time>
      </trkpt>
      <trkpt lat="48.70353" lon="1.75382">
        <ele>180.80000305176</ele>
        <time>2014-03-10T10:34:14.000Z</time>
      </trkpt>
      <trkpt lat="48.70336" lon="1.75361">
        <ele>181</ele>
        <time>2014-03-10T10:34:46.000Z</time>
      </trkpt>
      <trkpt lat="48.70333" lon="1.75358">
        <ele>181</ele>
        <time>2014-03-10T10:34:48.000Z</time>
      </trkpt>
      <trkpt lat="48.70329" lon="1.75357">
        <ele>180.80000305176</ele>
        <time>2014-03-10T10:34:51.000Z</time>
      </trkpt>
      <trkpt lat="48.70325" lon="1.75354">
        <ele>180.80000305176</ele>
        <time>2014-03-10T10:34:55.000Z</time>
      </trkpt>
      <trkpt lat="48.70314" lon="1.75346">
        <ele>180.39999389648</ele>
        <time>2014-03-10T10:35:04.000Z</time>
      </trkpt>
      <trkpt lat="48.70313" lon="1.75345">
        <ele>180.39999389648</ele>
        <time>2014-03-10T10:35:05.000Z</time>
      </trkpt>
      <trkpt lat="48.70304" lon="1.75335">
        <ele>180.19999694824</ele>
        <time>2014-03-10T10:35:13.000Z</time>
      </trkpt>
      <trkpt lat="48.70302" lon="1.75329">
        <ele>180.39999389648</ele>
        <time>2014-03-10T10:35:16.000Z</time>
      </trkpt>
      <trkpt lat="48.70302" lon="1.75324">
        <ele>180.39999389648</ele>
        <time>2014-03-10T10:35:23.000Z</time>
      </trkpt>
      <trkpt lat="48.70302" lon="1.75324">
        <ele>180.39999389648</ele>
        <time>2014-03-10T10:35:24.000Z</time>
      </trkpt>
      <trkpt lat="48.70303" lon="1.75311">
        <ele>180.60000610352</ele>
        <time>2014-03-10T10:36:06.000Z</time>
      </trkpt>
      <trkpt lat="48.70302" lon="1.75312">
        <ele>180.39999389648</ele>
        <time>2014-03-10T10:36:07.000Z</time>
      </trkpt>
      <trkpt lat="48.70301" lon="1.75313">
        <ele>180.39999389648</ele>
        <time>2014-03-10T10:36:09.000Z</time>
      </trkpt>
      <trkpt lat="48.70295" lon="1.75299">
        <ele>180.39999389648</ele>
        <time>2014-03-10T10:37:02.000Z</time>
      </trkpt>
      <trkpt lat="48.70286" lon="1.75292">
        <ele>180.39999389648</ele>
        <time>2014-03-10T10:37:08.000Z</time>
      </trkpt>
      <trkpt lat="48.70278" lon="1.75289">
        <ele>180.19999694824</ele>
        <time>2014-03-10T10:37:16.000Z</time>
      </trkpt>
      <trkpt lat="48.70273" lon="1.75282">
        <ele>180.19999694824</ele>
        <time>2014-03-10T10:37:22.000Z</time>
      </trkpt>
      <trkpt lat="48.70263" lon="1.75271">
        <ele>180</ele>
        <time>2014-03-10T10:37:31.000Z</time>
      </trkpt>
      <trkpt lat="48.70253" lon="1.75264">
        <ele>179.80000305176</ele>
        <time>2014-03-10T10:37:39.000Z</time>
      </trkpt>
      <trkpt lat="48.70244" lon="1.75256">
        <ele>179.60000610352</ele>
        <time>2014-03-10T10:37:47.000Z</time>
      </trkpt>
      <trkpt lat="48.70241" lon="1.75251">
        <ele>179.60000610352</ele>
        <time>2014-03-10T10:37:52.000Z</time>
      </trkpt>
      <trkpt lat="48.7023" lon="1.75245">
        <ele>179</ele>
        <time>2014-03-10T10:38:02.000Z</time>
      </trkpt>
      <trkpt lat="48.70219" lon="1.75245">
        <ele>178.39999389648</ele>
        <time>2014-03-10T10:38:09.000Z</time>
      </trkpt>
      <trkpt lat="48.70209" lon="1.75247">
        <ele>178</ele>
        <time>2014-03-10T10:38:17.000Z</time>
      </trkpt>
      <trkpt lat="48.70203" lon="1.75248">
        <ele>177.80000305176</ele>
        <time>2014-03-10T10:38:22.000Z</time>
      </trkpt>
      <trkpt lat="48.70194" lon="1.75238">
        <ele>177.19999694824</ele>
        <time>2014-03-10T10:38:30.000Z</time>
      </trkpt>
      <trkpt lat="48.70195" lon="1.75226">
        <ele>177.19999694824</ele>
        <time>2014-03-10T10:38:35.000Z</time>
      </trkpt>
      <trkpt lat="48.70201" lon="1.75215">
        <ele>177.39999389648</ele>
        <time>2014-03-10T10:38:43.000Z</time>
      </trkpt>
      <trkpt lat="48.70202" lon="1.75215">
        <ele>177.39999389648</ele>
        <time>2014-03-10T10:38:44.000Z</time>
      </trkpt>
      <trkpt lat="48.70206" lon="1.75198">
        <ele>177.60000610352</ele>
        <time>2014-03-10T10:39:50.000Z</time>
      </trkpt>
      <trkpt lat="48.70208" lon="1.75187">
        <ele>177.60000610352</ele>
        <time>2014-03-10T10:39:56.000Z</time>
      </trkpt>
      <trkpt lat="48.70211" lon="1.75182">
        <ele>177.60000610352</ele>
        <time>2014-03-10T10:40:02.000Z</time>
      </trkpt>
      <trkpt lat="48.70214" lon="1.75182">
        <ele>177.80000305176</ele>
        <time>2014-03-10T10:40:06.000Z</time>
      </trkpt>
      <trkpt lat="48.70216" lon="1.75181">
        <ele>177.80000305176</ele>
        <time>2014-03-10T10:40:09.000Z</time>
      </trkpt>
      <trkpt lat="48.70213" lon="1.75163">
        <ele>177.60000610352</ele>
        <time>2014-03-10T10:40:44.000Z</time>
      </trkpt>
      <trkpt lat="48.70212" lon="1.75149">
        <ele>177.80000305176</ele>
        <time>2014-03-10T10:40:51.000Z</time>
      </trkpt>
      <trkpt lat="48.70213" lon="1.75147">
        <ele>177.80000305176</ele>
        <time>2014-03-10T10:40:52.000Z</time>
      </trkpt>
      <trkpt lat="48.70215" lon="1.75135">
        <ele>178</ele>
        <time>2014-03-10T10:40:59.000Z</time>
      </trkpt>
      <trkpt lat="48.70218" lon="1.75125">
        <ele>178.19999694824</ele>
        <time>2014-03-10T10:41:07.000Z</time>
      </trkpt>
      <trkpt lat="48.70219" lon="1.75116">
        <ele>178.39999389648</ele>
        <time>2014-03-10T10:41:13.000Z</time>
      </trkpt>
      <trkpt lat="48.70222" lon="1.751">
        <ele>178.60000610352</ele>
        <time>2014-03-10T10:41:21.000Z</time>
      </trkpt>
      <trkpt lat="48.70224" lon="1.75087">
        <ele>178.60000610352</ele>
        <time>2014-03-10T10:41:28.000Z</time>
      </trkpt>
      <trkpt lat="48.70226" lon="1.75076">
        <ele>178.60000610352</ele>
        <time>2014-03-10T10:41:34.000Z</time>
      </trkpt>
      <trkpt lat="48.70228" lon="1.75056">
        <ele>178.19999694824</ele>
        <time>2014-03-10T10:41:44.000Z</time>
      </trkpt>
      <trkpt lat="48.7023" lon="1.75046">
        <ele>178</ele>
        <time>2014-03-10T10:41:50.000Z</time>
      </trkpt>
      <trkpt lat="48.70231" lon="1.75032">
        <ele>177.80000305176</ele>
        <time>2014-03-10T10:41:56.000Z</time>
      </trkpt>
      <trkpt lat="48.70236" lon="1.75017">
        <ele>177.60000610352</ele>
        <time>2014-03-10T10:42:04.000Z</time>
      </trkpt>
      <trkpt lat="48.70239" lon="1.75003">
        <ele>177.19999694824</ele>
        <time>2014-03-10T10:42:11.000Z</time>
      </trkpt>
      <trkpt lat="48.70241" lon="1.74988">
        <ele>176.60000610352</ele>
        <time>2014-03-10T10:42:19.000Z</time>
      </trkpt>
      <trkpt lat="48.70242" lon="1.74969">
        <ele>175.60000610352</ele>
        <time>2014-03-10T10:42:27.000Z</time>
      </trkpt>
      <trkpt lat="48.70244" lon="1.74956">
        <ele>175</ele>
        <time>2014-03-10T10:42:34.000Z</time>
      </trkpt>
      <trkpt lat="48.70246" lon="1.74938">
        <ele>174.19999694824</ele>
        <time>2014-03-10T10:42:44.000Z</time>
      </trkpt>
      <trkpt lat="48.7025" lon="1.74917">
        <ele>173</ele>
        <time>2014-03-10T10:42:55.000Z</time>
      </trkpt>
      <trkpt lat="48.70255" lon="1.74897">
        <ele>172.80000305176</ele>
        <time>2014-03-10T10:43:06.000Z</time>
      </trkpt>
      <trkpt lat="48.70258" lon="1.74881">
        <ele>172.80000305176</ele>
        <time>2014-03-10T10:43:14.000Z</time>
      </trkpt>
      <trkpt lat="48.70259" lon="1.74868">
        <ele>172.60000610352</ele>
        <time>2014-03-10T10:43:20.000Z</time>
      </trkpt>
      <trkpt lat="48.70261" lon="1.74846">
        <ele>172.60000610352</ele>
        <time>2014-03-10T10:43:30.000Z</time>
      </trkpt>
      <trkpt lat="48.70264" lon="1.74831">
        <ele>172.19999694824</ele>
        <time>2014-03-10T10:43:38.000Z</time>
      </trkpt>
      <trkpt lat="48.70266" lon="1.74814">
        <ele>171.80000305176</ele>
        <time>2014-03-10T10:43:46.000Z</time>
      </trkpt>
      <trkpt lat="48.70268" lon="1.74791">
        <ele>171.19999694824</ele>
        <time>2014-03-10T10:43:56.000Z</time>
      </trkpt>
      <trkpt lat="48.7027" lon="1.74772">
        <ele>170.80000305176</ele>
        <time>2014-03-10T10:44:05.000Z</time>
      </trkpt>
      <trkpt lat="48.70274" lon="1.74754">
        <ele>170.19999694824</ele>
        <time>2014-03-10T10:44:14.000Z</time>
      </trkpt>
      <trkpt lat="48.70278" lon="1.74736">
        <ele>169.80000305176</ele>
        <time>2014-03-10T10:44:23.000Z</time>
      </trkpt>
      <trkpt lat="48.70281" lon="1.74713">
        <ele>169.19999694824</ele>
        <time>2014-03-10T10:44:33.000Z</time>
      </trkpt>
      <trkpt lat="48.70284" lon="1.74696">
        <ele>168.80000305176</ele>
        <time>2014-03-10T10:44:42.000Z</time>
      </trkpt>
      <trkpt lat="48.70287" lon="1.74678">
        <ele>168.60000610352</ele>
        <time>2014-03-10T10:44:51.000Z</time>
      </trkpt>
      <trkpt lat="48.70285" lon="1.74671">
        <ele>168.39999389648</ele>
        <time>2014-03-10T10:44:54.000Z</time>
      </trkpt>
      <trkpt lat="48.7028" lon="1.74667">
        <ele>168.39999389648</ele>
        <time>2014-03-10T10:45:01.000Z</time>
      </trkpt>
      <trkpt lat="48.70271" lon="1.74669">
        <ele>168.39999389648</ele>
        <time>2014-03-10T10:45:09.000Z</time>
      </trkpt>
      <trkpt lat="48.70258" lon="1.74674">
        <ele>168.39999389648</ele>
        <time>2014-03-10T10:45:17.000Z</time>
      </trkpt>
      <trkpt lat="48.70244" lon="1.74681">
        <ele>168.80000305176</ele>
        <time>2014-03-10T10:45:22.000Z</time>
      </trkpt>
      <trkpt lat="48.70225" lon="1.7469">
        <ele>170.39999389648</ele>
        <time>2014-03-10T10:45:28.000Z</time>
      </trkpt>
      <trkpt lat="48.70204" lon="1.74698">
        <ele>172.19999694824</ele>
        <time>2014-03-10T10:45:35.000Z</time>
      </trkpt>
      <trkpt lat="48.70194" lon="1.74705">
        <ele>173</ele>
        <time>2014-03-10T10:45:39.000Z</time>
      </trkpt>
      <trkpt lat="48.70179" lon="1.74712">
        <ele>174.39999389648</ele>
        <time>2014-03-10T10:45:44.000Z</time>
      </trkpt>
      <trkpt lat="48.70165" lon="1.74717">
        <ele>175.39999389648</ele>
        <time>2014-03-10T10:45:49.000Z</time>
      </trkpt>
      <trkpt lat="48.70149" lon="1.74728">
        <ele>175.39999389648</ele>
        <time>2014-03-10T10:45:55.000Z</time>
      </trkpt>
      <trkpt lat="48.70143" lon="1.74733">
        <ele>175.60000610352</ele>
        <time>2014-03-10T10:46:00.000Z</time>
      </trkpt>
      <trkpt lat="48.70133" lon="1.74737">
        <ele>175.39999389648</ele>
        <time>2014-03-10T10:46:08.000Z</time>
      </trkpt>
      <trkpt lat="48.7013" lon="1.74737">
        <ele>175.19999694824</ele>
        <time>2014-03-10T10:46:12.000Z</time>
      </trkpt>
      <trkpt lat="48.70121" lon="1.74742">
        <ele>175.19999694824</ele>
        <time>2014-03-10T10:46:19.000Z</time>
      </trkpt>
      <trkpt lat="48.70119" lon="1.74743">
        <ele>175</ele>
        <time>2014-03-10T10:46:21.000Z</time>
      </trkpt>
      <trkpt lat="48.70114" lon="1.74745">
        <ele>175</ele>
        <time>2014-03-10T10:46:26.000Z</time>
      </trkpt>
      <trkpt lat="48.70109" lon="1.74749">
        <ele>174.80000305176</ele>
        <time>2014-03-10T10:46:29.000Z</time>
      </trkpt>
      <trkpt lat="48.70101" lon="1.7475">
        <ele>174.60000610352</ele>
        <time>2014-03-10T10:46:35.000Z</time>
      </trkpt>
      <trkpt lat="48.70092" lon="1.74756">
        <ele>174.39999389648</ele>
        <time>2014-03-10T10:46:42.000Z</time>
      </trkpt>
      <trkpt lat="48.70083" lon="1.74764">
        <ele>174</ele>
        <time>2014-03-10T10:46:49.000Z</time>
      </trkpt>
      <trkpt lat="48.70072" lon="1.74767">
        <ele>173.19999694824</ele>
        <time>2014-03-10T10:46:58.000Z</time>
      </trkpt>
      <trkpt lat="48.70069" lon="1.7477">
        <ele>173</ele>
        <time>2014-03-10T10:47:01.000Z</time>
      </trkpt>
      <trkpt lat="48.70058" lon="1.74772">
        <ele>172.39999389648</ele>
        <time>2014-03-10T10:47:10.000Z</time>
      </trkpt>
      <trkpt lat="48.7005" lon="1.74777">
        <ele>172</ele>
        <time>2014-03-10T10:47:17.000Z</time>
      </trkpt>
      <trkpt lat="48.70047" lon="1.74776">
        <ele>171.80000305176</ele>
        <time>2014-03-10T10:47:19.000Z</time>
      </trkpt>
      <trkpt lat="48.7004" lon="1.74778">
        <ele>171.39999389648</ele>
        <time>2014-03-10T10:47:25.000Z</time>
      </trkpt>
      <trkpt lat="48.70029" lon="1.74783">
        <ele>170.80000305176</ele>
        <time>2014-03-10T10:47:34.000Z</time>
      </trkpt>
      <trkpt lat="48.7002" lon="1.74789">
        <ele>170.60000610352</ele>
        <time>2014-03-10T10:47:42.000Z</time>
      </trkpt>
      <trkpt lat="48.70009" lon="1.74794">
        <ele>170</ele>
        <time>2014-03-10T10:47:51.000Z</time>
      </trkpt>
      <trkpt lat="48.69996" lon="1.74801">
        <ele>169.80000305176</ele>
        <time>2014-03-10T10:48:02.000Z</time>
      </trkpt>
      <trkpt lat="48.69988" lon="1.74805">
        <ele>170</ele>
        <time>2014-03-10T10:48:09.000Z</time>
      </trkpt>
      <trkpt lat="48.69979" lon="1.74807">
        <ele>170.19999694824</ele>
        <time>2014-03-10T10:48:16.000Z</time>
      </trkpt>
      <trkpt lat="48.6997" lon="1.74809">
        <ele>170.19999694824</ele>
        <time>2014-03-10T10:48:23.000Z</time>
      </trkpt>
      <trkpt lat="48.69963" lon="1.74814">
        <ele>170.39999389648</ele>
        <time>2014-03-10T10:48:29.000Z</time>
      </trkpt>
      <trkpt lat="48.69955" lon="1.74818">
        <ele>170.39999389648</ele>
        <time>2014-03-10T10:48:36.000Z</time>
      </trkpt>
      <trkpt lat="48.69944" lon="1.74823">
        <ele>170.39999389648</ele>
        <time>2014-03-10T10:48:45.000Z</time>
      </trkpt>
      <trkpt lat="48.69936" lon="1.74826">
        <ele>170.39999389648</ele>
        <time>2014-03-10T10:48:51.000Z</time>
      </trkpt>
      <trkpt lat="48.69926" lon="1.74831">
        <ele>170.19999694824</ele>
        <time>2014-03-10T10:49:00.000Z</time>
      </trkpt>
      <trkpt lat="48.69918" lon="1.74837">
        <ele>170.19999694824</ele>
        <time>2014-03-10T10:49:07.000Z</time>
      </trkpt>
      <trkpt lat="48.69911" lon="1.74844">
        <ele>170.19999694824</ele>
        <time>2014-03-10T10:49:14.000Z</time>
      </trkpt>
      <trkpt lat="48.69893" lon="1.74849">
        <ele>170.39999389648</ele>
        <time>2014-03-10T10:49:27.000Z</time>
      </trkpt>
      <trkpt lat="48.6988" lon="1.74853">
        <ele>170.19999694824</ele>
        <time>2014-03-10T10:49:36.000Z</time>
      </trkpt>
      <trkpt lat="48.69871" lon="1.74859">
        <ele>170.19999694824</ele>
        <time>2014-03-10T10:49:44.000Z</time>
      </trkpt>
      <trkpt lat="48.69864" lon="1.74864">
        <ele>170</ele>
        <time>2014-03-10T10:49:49.000Z</time>
      </trkpt>
      <trkpt lat="48.69862" lon="1.74865">
        <ele>170</ele>
        <time>2014-03-10T10:49:51.000Z</time>
      </trkpt>
      <trkpt lat="48.69849" lon="1.7487">
        <ele>169.60000610352</ele>
        <time>2014-03-10T10:50:00.000Z</time>
      </trkpt>
      <trkpt lat="48.69848" lon="1.7487">
        <ele>169.60000610352</ele>
        <time>2014-03-10T10:50:01.000Z</time>
      </trkpt>
      <trkpt lat="48.69835" lon="1.74876">
        <ele>169</ele>
        <time>2014-03-10T10:50:10.000Z</time>
      </trkpt>
      <trkpt lat="48.69825" lon="1.74879">
        <ele>168.39999389648</ele>
        <time>2014-03-10T10:50:17.000Z</time>
      </trkpt>
      <trkpt lat="48.69816" lon="1.7488">
        <ele>168.19999694824</ele>
        <time>2014-03-10T10:50:23.000Z</time>
      </trkpt>
      <trkpt lat="48.69807" lon="1.74886">
        <ele>167.60000610352</ele>
        <time>2014-03-10T10:50:30.000Z</time>
      </trkpt>
      <trkpt lat="48.69797" lon="1.74894">
        <ele>167</ele>
        <time>2014-03-10T10:50:38.000Z</time>
      </trkpt>
      <trkpt lat="48.69785" lon="1.74903">
        <ele>166.60000610352</ele>
        <time>2014-03-10T10:50:48.000Z</time>
      </trkpt>
      <trkpt lat="48.69781" lon="1.74905">
        <ele>166.39999389648</ele>
        <time>2014-03-10T10:50:51.000Z</time>
      </trkpt>
      <trkpt lat="48.69775" lon="1.74907">
        <ele>166.39999389648</ele>
        <time>2014-03-10T10:50:56.000Z</time>
      </trkpt>
      <trkpt lat="48.69763" lon="1.7491">
        <ele>166.19999694824</ele>
        <time>2014-03-10T10:51:05.000Z</time>
      </trkpt>
      <trkpt lat="48.69753" lon="1.74916">
        <ele>166</ele>
        <time>2014-03-10T10:51:13.000Z</time>
      </trkpt>
      <trkpt lat="48.69741" lon="1.74919">
        <ele>165.60000610352</ele>
        <time>2014-03-10T10:51:23.000Z</time>
      </trkpt>
      <trkpt lat="48.69729" lon="1.74924">
        <ele>165</ele>
        <time>2014-03-10T10:51:31.000Z</time>
      </trkpt>
      <trkpt lat="48.69719" lon="1.74931">
        <ele>164.60000610352</ele>
        <time>2014-03-10T10:51:39.000Z</time>
      </trkpt>
      <trkpt lat="48.69709" lon="1.74936">
        <ele>164.19999694824</ele>
        <time>2014-03-10T10:51:46.000Z</time>
      </trkpt>
      <trkpt lat="48.69698" lon="1.74941">
        <ele>163.60000610352</ele>
        <time>2014-03-10T10:51:55.000Z</time>
      </trkpt>
      <trkpt lat="48.69694" lon="1.74943">
        <ele>163.60000610352</ele>
        <time>2014-03-10T10:51:58.000Z</time>
      </trkpt>
      <trkpt lat="48.69688" lon="1.74946">
        <ele>163.19999694824</ele>
        <time>2014-03-10T10:52:03.000Z</time>
      </trkpt>
      <trkpt lat="48.69675" lon="1.74952">
        <ele>162.80000305176</ele>
        <time>2014-03-10T10:52:13.000Z</time>
      </trkpt>
      <trkpt lat="48.69664" lon="1.74958">
        <ele>162.39999389648</ele>
        <time>2014-03-10T10:52:22.000Z</time>
      </trkpt>
      <trkpt lat="48.69648" lon="1.74965">
        <ele>161.60000610352</ele>
        <time>2014-03-10T10:52:35.000Z</time>
      </trkpt>
      <trkpt lat="48.69632" lon="1.74971">
        <ele>161</ele>
        <time>2014-03-10T10:52:47.000Z</time>
      </trkpt>
      <trkpt lat="48.6962" lon="1.74974">
        <ele>160.39999389648</ele>
        <time>2014-03-10T10:52:57.000Z</time>
      </trkpt>
      <trkpt lat="48.69611" lon="1.74978">
        <ele>160</ele>
        <time>2014-03-10T10:53:04.000Z</time>
      </trkpt>
      <trkpt lat="48.69602" lon="1.74982">
        <ele>159.60000610352</ele>
        <time>2014-03-10T10:53:11.000Z</time>
      </trkpt>
      <trkpt lat="48.69593" lon="1.74988">
        <ele>159.39999389648</ele>
        <time>2014-03-10T10:53:18.000Z</time>
      </trkpt>
      <trkpt lat="48.69579" lon="1.74996">
        <ele>159.39999389648</ele>
        <time>2014-03-10T10:53:29.000Z</time>
      </trkpt>
      <trkpt lat="48.69568" lon="1.75">
        <ele>160.60000610352</ele>
        <time>2014-03-10T10:53:38.000Z</time>
      </trkpt>
      <trkpt lat="48.69555" lon="1.75006">
        <ele>162</ele>
        <time>2014-03-10T10:53:48.000Z</time>
      </trkpt>
      <trkpt lat="48.69543" lon="1.75012">
        <ele>163.19999694824</ele>
        <time>2014-03-10T10:53:58.000Z</time>
      </trkpt>
      <trkpt lat="48.69532" lon="1.75018">
        <ele>164.19999694824</ele>
        <time>2014-03-10T10:54:07.000Z</time>
      </trkpt>
      <trkpt lat="48.69519" lon="1.75026">
        <ele>165.39999389648</ele>
        <time>2014-03-10T10:54:18.000Z</time>
      </trkpt>
      <trkpt lat="48.69509" lon="1.75031">
        <ele>166.39999389648</ele>
        <time>2014-03-10T10:54:26.000Z</time>
      </trkpt>
      <trkpt lat="48.695" lon="1.75035">
        <ele>167.19999694824</ele>
        <time>2014-03-10T10:54:35.000Z</time>
      </trkpt>
      <trkpt lat="48.69491" lon="1.75038">
        <ele>167.19999694824</ele>
        <time>2014-03-10T10:54:43.000Z</time>
      </trkpt>
      <trkpt lat="48.69481" lon="1.75042">
        <ele>167.19999694824</ele>
        <time>2014-03-10T10:54:51.000Z</time>
      </trkpt>
      <trkpt lat="48.69473" lon="1.75046">
        <ele>167.19999694824</ele>
        <time>2014-03-10T10:54:57.000Z</time>
      </trkpt>
      <trkpt lat="48.69463" lon="1.75052">
        <ele>167.19999694824</ele>
        <time>2014-03-10T10:55:05.000Z</time>
      </trkpt>
      <trkpt lat="48.69452" lon="1.75058">
        <ele>167.39999389648</ele>
        <time>2014-03-10T10:55:14.000Z</time>
      </trkpt>
      <trkpt lat="48.6944" lon="1.75062">
        <ele>167.60000610352</ele>
        <time>2014-03-10T10:55:23.000Z</time>
      </trkpt>
      <trkpt lat="48.69434" lon="1.75066">
        <ele>167.60000610352</ele>
        <time>2014-03-10T10:55:29.000Z</time>
      </trkpt>
      <trkpt lat="48.69424" lon="1.75072">
        <ele>167.80000305176</ele>
        <time>2014-03-10T10:55:37.000Z</time>
      </trkpt>
      <trkpt lat="48.69413" lon="1.75077">
        <ele>167.80000305176</ele>
        <time>2014-03-10T10:55:47.000Z</time>
      </trkpt>
      <trkpt lat="48.69401" lon="1.75083">
        <ele>167.60000610352</ele>
        <time>2014-03-10T10:55:56.000Z</time>
      </trkpt>
      <trkpt lat="48.69392" lon="1.75082">
        <ele>167.39999389648</ele>
        <time>2014-03-10T10:56:03.000Z</time>
      </trkpt>
      <trkpt lat="48.69382" lon="1.75088">
        <ele>167</ele>
        <time>2014-03-10T10:56:11.000Z</time>
      </trkpt>
      <trkpt lat="48.69374" lon="1.75095">
        <ele>166.60000610352</ele>
        <time>2014-03-10T10:56:19.000Z</time>
      </trkpt>
      <trkpt lat="48.69366" lon="1.75099">
        <ele>166.39999389648</ele>
        <time>2014-03-10T10:56:26.000Z</time>
      </trkpt>
      <trkpt lat="48.69355" lon="1.75104">
        <ele>166.19999694824</ele>
        <time>2014-03-10T10:56:34.000Z</time>
      </trkpt>
      <trkpt lat="48.69346" lon="1.75106">
        <ele>166</ele>
        <time>2014-03-10T10:56:41.000Z</time>
      </trkpt>
      <trkpt lat="48.69334" lon="1.7511">
        <ele>165.60000610352</ele>
        <time>2014-03-10T10:56:50.000Z</time>
      </trkpt>
      <trkpt lat="48.69322" lon="1.75117">
        <ele>166.19999694824</ele>
        <time>2014-03-10T10:56:58.000Z</time>
      </trkpt>
      <trkpt lat="48.69309" lon="1.75125">
        <ele>167.19999694824</ele>
        <time>2014-03-10T10:57:08.000Z</time>
      </trkpt>
      <trkpt lat="48.69299" lon="1.75129">
        <ele>167.80000305176</ele>
        <time>2014-03-10T10:57:15.000Z</time>
      </trkpt>
      <trkpt lat="48.69289" lon="1.75133">
        <ele>168.39999389648</ele>
        <time>2014-03-10T10:57:21.000Z</time>
      </trkpt>
      <trkpt lat="48.69278" lon="1.75138">
        <ele>169.39999389648</ele>
        <time>2014-03-10T10:57:28.000Z</time>
      </trkpt>
      <trkpt lat="48.69276" lon="1.75139">
        <ele>169.39999389648</ele>
        <time>2014-03-10T10:57:32.000Z</time>
      </trkpt>
      <trkpt lat="48.69255" lon="1.7515">
        <ele>171.19999694824</ele>
        <time>2014-03-10T10:58:22.000Z</time>
      </trkpt>
      <trkpt lat="48.69245" lon="1.75156">
        <ele>171.60000610352</ele>
        <time>2014-03-10T10:58:30.000Z</time>
      </trkpt>
      <trkpt lat="48.69244" lon="1.75151">
        <ele>171.39999389648</ele>
        <time>2014-03-10T10:58:36.000Z</time>
      </trkpt>
      <trkpt lat="48.69244" lon="1.75145">
        <ele>171.19999694824</ele>
        <time>2014-03-10T10:58:42.000Z</time>
      </trkpt>
      <trkpt lat="48.69244" lon="1.75145">
        <ele>171.19999694824</ele>
        <time>2014-03-10T10:58:45.000Z</time>
      </trkpt>
      <trkpt lat="48.69232" lon="1.7516">
        <ele>171.19999694824</ele>
        <time>2014-03-10T10:59:47.000Z</time>
      </trkpt>
      <trkpt lat="48.69228" lon="1.75163">
        <ele>171.19999694824</ele>
        <time>2014-03-10T10:59:49.000Z</time>
      </trkpt>
      <trkpt lat="48.6922" lon="1.75169">
        <ele>170.80000305176</ele>
        <time>2014-03-10T10:59:57.000Z</time>
      </trkpt>
      <trkpt lat="48.69212" lon="1.75169">
        <ele>170.60000610352</ele>
        <time>2014-03-10T11:00:04.000Z</time>
      </trkpt>
      <trkpt lat="48.69201" lon="1.75175">
        <ele>170</ele>
        <time>2014-03-10T11:00:13.000Z</time>
      </trkpt>
      <trkpt lat="48.69195" lon="1.75179">
        <ele>169.80000305176</ele>
        <time>2014-03-10T11:00:18.000Z</time>
      </trkpt>
      <trkpt lat="48.69183" lon="1.75185">
        <ele>169.39999389648</ele>
        <time>2014-03-10T11:00:28.000Z</time>
      </trkpt>
      <trkpt lat="48.69175" lon="1.75185">
        <ele>169</ele>
        <time>2014-03-10T11:00:34.000Z</time>
      </trkpt>
      <trkpt lat="48.69168" lon="1.75189">
        <ele>168.80000305176</ele>
        <time>2014-03-10T11:00:40.000Z</time>
      </trkpt>
      <trkpt lat="48.69159" lon="1.75196">
        <ele>167.80000305176</ele>
        <time>2014-03-10T11:00:47.000Z</time>
      </trkpt>
      <trkpt lat="48.69145" lon="1.75202">
        <ele>166</ele>
        <time>2014-03-10T11:00:58.000Z</time>
      </trkpt>
      <trkpt lat="48.69136" lon="1.75206">
        <ele>164.80000305176</ele>
        <time>2014-03-10T11:01:06.000Z</time>
      </trkpt>
      <trkpt lat="48.69127" lon="1.7521">
        <ele>163.60000610352</ele>
        <time>2014-03-10T11:01:14.000Z</time>
      </trkpt>
      <trkpt lat="48.69118" lon="1.75216">
        <ele>162.60000610352</ele>
        <time>2014-03-10T11:01:22.000Z</time>
      </trkpt>
      <trkpt lat="48.6911" lon="1.75222">
        <ele>161.80000305176</ele>
        <time>2014-03-10T11:01:29.000Z</time>
      </trkpt>
      <trkpt lat="48.69099" lon="1.75229">
        <ele>160.39999389648</ele>
        <time>2014-03-10T11:01:38.000Z</time>
      </trkpt>
      <trkpt lat="48.69086" lon="1.75234">
        <ele>159.19999694824</ele>
        <time>2014-03-10T11:01:47.000Z</time>
      </trkpt>
      <trkpt lat="48.69072" lon="1.75241">
        <ele>158.39999389648</ele>
        <time>2014-03-10T11:01:57.000Z</time>
      </trkpt>
      <trkpt lat="48.69059" lon="1.75247">
        <ele>157.80000305176</ele>
        <time>2014-03-10T11:02:06.000Z</time>
      </trkpt>
      <trkpt lat="48.69047" lon="1.75251">
        <ele>157.19999694824</ele>
        <time>2014-03-10T11:02:14.000Z</time>
      </trkpt>
      <trkpt lat="48.69036" lon="1.75257">
        <ele>156.80000305176</ele>
        <time>2014-03-10T11:02:23.000Z</time>
      </trkpt>
      <trkpt lat="48.69027" lon="1.75261">
        <ele>156.39999389648</ele>
        <time>2014-03-10T11:02:30.000Z</time>
      </trkpt>
      <trkpt lat="48.69015" lon="1.75264">
        <ele>156</ele>
        <time>2014-03-10T11:02:40.000Z</time>
      </trkpt>
      <trkpt lat="48.69009" lon="1.75272">
        <ele>156</ele>
        <time>2014-03-10T11:02:47.000Z</time>
      </trkpt>
      <trkpt lat="48.69001" lon="1.75274">
        <ele>155.60000610352</ele>
        <time>2014-03-10T11:02:53.000Z</time>
      </trkpt>
      <trkpt lat="48.68996" lon="1.75275">
        <ele>155.39999389648</ele>
        <time>2014-03-10T11:02:57.000Z</time>
      </trkpt>
      <trkpt lat="48.68991" lon="1.75275">
        <ele>155.39999389648</ele>
        <time>2014-03-10T11:03:01.000Z</time>
      </trkpt>
      <trkpt lat="48.6898" lon="1.75273">
        <ele>155</ele>
        <time>2014-03-10T11:03:08.000Z</time>
      </trkpt>
      <trkpt lat="48.68969" lon="1.75278">
        <ele>154.80000305176</ele>
        <time>2014-03-10T11:03:16.000Z</time>
      </trkpt>
      <trkpt lat="48.68957" lon="1.75291">
        <ele>154.60000610352</ele>
        <time>2014-03-10T11:03:26.000Z</time>
      </trkpt>
      <trkpt lat="48.68949" lon="1.75301">
        <ele>154.60000610352</ele>
        <time>2014-03-10T11:03:34.000Z</time>
      </trkpt>
      <trkpt lat="48.6894" lon="1.75306">
        <ele>154.39999389648</ele>
        <time>2014-03-10T11:03:42.000Z</time>
      </trkpt>
      <trkpt lat="48.68937" lon="1.75307">
        <ele>154.39999389648</ele>
        <time>2014-03-10T11:03:44.000Z</time>
      </trkpt>
      <trkpt lat="48.68932" lon="1.75311">
        <ele>154.19999694824</ele>
        <time>2014-03-10T11:03:49.000Z</time>
      </trkpt>
      <trkpt lat="48.68924" lon="1.75314">
        <ele>154</ele>
        <time>2014-03-10T11:03:56.000Z</time>
      </trkpt>
      <trkpt lat="48.68916" lon="1.75318">
        <ele>153.80000305176</ele>
        <time>2014-03-10T11:04:02.000Z</time>
      </trkpt>
      <trkpt lat="48.68909" lon="1.75322">
        <ele>154</ele>
        <time>2014-03-10T11:04:09.000Z</time>
      </trkpt>
      <trkpt lat="48.68903" lon="1.75326">
        <ele>154</ele>
        <time>2014-03-10T11:04:13.000Z</time>
      </trkpt>
      <trkpt lat="48.68895" lon="1.7533">
        <ele>154.19999694824</ele>
        <time>2014-03-10T11:04:20.000Z</time>
      </trkpt>
      <trkpt lat="48.68887" lon="1.75333">
        <ele>154.39999389648</ele>
        <time>2014-03-10T11:04:26.000Z</time>
      </trkpt>
      <trkpt lat="48.68878" lon="1.7534">
        <ele>154.80000305176</ele>
        <time>2014-03-10T11:04:34.000Z</time>
      </trkpt>
      <trkpt lat="48.68876" lon="1.75342">
        <ele>154.80000305176</ele>
        <time>2014-03-10T11:04:36.000Z</time>
      </trkpt>
      <trkpt lat="48.68868" lon="1.75346">
        <ele>155</ele>
        <time>2014-03-10T11:04:43.000Z</time>
      </trkpt>
      <trkpt lat="48.68857" lon="1.75352">
        <ele>155.39999389648</ele>
        <time>2014-03-10T11:04:53.000Z</time>
      </trkpt>
      <trkpt lat="48.68854" lon="1.75353">
        <ele>155.39999389648</ele>
        <time>2014-03-10T11:04:56.000Z</time>
      </trkpt>
      <trkpt lat="48.68846" lon="1.75358">
        <ele>155.80000305176</ele>
        <time>2014-03-10T11:05:03.000Z</time>
      </trkpt>
      <trkpt lat="48.68842" lon="1.75359">
        <ele>155.80000305176</ele>
        <time>2014-03-10T11:05:06.000Z</time>
      </trkpt>
      <trkpt lat="48.68831" lon="1.75362">
        <ele>156</ele>
        <time>2014-03-10T11:05:16.000Z</time>
      </trkpt>
      <trkpt lat="48.68821" lon="1.75367">
        <ele>156.19999694824</ele>
        <time>2014-03-10T11:05:24.000Z</time>
      </trkpt>
      <trkpt lat="48.68811" lon="1.75376">
        <ele>156.39999389648</ele>
        <time>2014-03-10T11:05:32.000Z</time>
      </trkpt>
      <trkpt lat="48.68802" lon="1.75381">
        <ele>156.60000610352</ele>
        <time>2014-03-10T11:05:39.000Z</time>
      </trkpt>
      <trkpt lat="48.68792" lon="1.75388">
        <ele>156.60000610352</ele>
        <time>2014-03-10T11:05:47.000Z</time>
      </trkpt>
      <trkpt lat="48.68781" lon="1.75394">
        <ele>156.80000305176</ele>
        <time>2014-03-10T11:05:56.000Z</time>
      </trkpt>
      <trkpt lat="48.68772" lon="1.75398">
        <ele>156.80000305176</ele>
        <time>2014-03-10T11:06:04.000Z</time>
      </trkpt>
      <trkpt lat="48.68759" lon="1.75406">
        <ele>156.80000305176</ele>
        <time>2014-03-10T11:06:14.000Z</time>
      </trkpt>
      <trkpt lat="48.68751" lon="1.75413">
        <ele>157</ele>
        <time>2014-03-10T11:06:22.000Z</time>
      </trkpt>
      <trkpt lat="48.68742" lon="1.75418">
        <ele>157</ele>
        <time>2014-03-10T11:06:31.000Z</time>
      </trkpt>
      <trkpt lat="48.68738" lon="1.75419">
        <ele>157</ele>
        <time>2014-03-10T11:06:35.000Z</time>
      </trkpt>
      <trkpt lat="48.68736" lon="1.7542">
        <ele>157</ele>
        <time>2014-03-10T11:06:37.000Z</time>
      </trkpt>
      <trkpt lat="48.68725" lon="1.75427">
        <ele>157.19999694824</ele>
        <time>2014-03-10T11:06:46.000Z</time>
      </trkpt>
      <trkpt lat="48.68714" lon="1.75432">
        <ele>157.39999389648</ele>
        <time>2014-03-10T11:06:55.000Z</time>
      </trkpt>
      <trkpt lat="48.68706" lon="1.75437">
        <ele>157.60000610352</ele>
        <time>2014-03-10T11:07:02.000Z</time>
      </trkpt>
      <trkpt lat="48.68697" lon="1.75442">
        <ele>157.80000305176</ele>
        <time>2014-03-10T11:07:09.000Z</time>
      </trkpt>
      <trkpt lat="48.68688" lon="1.75447">
        <ele>158</ele>
        <time>2014-03-10T11:07:17.000Z</time>
      </trkpt>
      <trkpt lat="48.68679" lon="1.7545">
        <ele>158.19999694824</ele>
        <time>2014-03-10T11:07:25.000Z</time>
      </trkpt>
      <trkpt lat="48.6867" lon="1.75455">
        <ele>158.39999389648</ele>
        <time>2014-03-10T11:07:32.000Z</time>
      </trkpt>
      <trkpt lat="48.68666" lon="1.75456">
        <ele>158.39999389648</ele>
        <time>2014-03-10T11:07:36.000Z</time>
      </trkpt>
      <trkpt lat="48.68653" lon="1.7546">
        <ele>158.80000305176</ele>
        <time>2014-03-10T11:07:46.000Z</time>
      </trkpt>
      <trkpt lat="48.68646" lon="1.75464">
        <ele>158.80000305176</ele>
        <time>2014-03-10T11:07:52.000Z</time>
      </trkpt>
      <trkpt lat="48.6864" lon="1.75466">
        <ele>159</ele>
        <time>2014-03-10T11:07:56.000Z</time>
      </trkpt>
      <trkpt lat="48.68629" lon="1.75472">
        <ele>159.19999694824</ele>
        <time>2014-03-10T11:08:04.000Z</time>
      </trkpt>
      <trkpt lat="48.68626" lon="1.75474">
        <ele>159.19999694824</ele>
        <time>2014-03-10T11:08:07.000Z</time>
      </trkpt>
      <trkpt lat="48.6862" lon="1.7548">
        <ele>159.19999694824</ele>
        <time>2014-03-10T11:08:12.000Z</time>
      </trkpt>
      <trkpt lat="48.6861" lon="1.75487">
        <ele>159.19999694824</ele>
        <time>2014-03-10T11:08:20.000Z</time>
      </trkpt>
      <trkpt lat="48.68601" lon="1.75491">
        <ele>159.19999694824</ele>
        <time>2014-03-10T11:08:27.000Z</time>
      </trkpt>
      <trkpt lat="48.68592" lon="1.75497">
        <ele>159.19999694824</ele>
        <time>2014-03-10T11:08:34.000Z</time>
      </trkpt>
      <trkpt lat="48.6859" lon="1.75499">
        <ele>159</ele>
        <time>2014-03-10T11:08:36.000Z</time>
      </trkpt>
      <trkpt lat="48.6858" lon="1.75506">
        <ele>159</ele>
        <time>2014-03-10T11:08:44.000Z</time>
      </trkpt>
      <trkpt lat="48.68569" lon="1.75511">
        <ele>159</ele>
        <time>2014-03-10T11:08:53.000Z</time>
      </trkpt>
      <trkpt lat="48.68561" lon="1.75513">
        <ele>158.80000305176</ele>
        <time>2014-03-10T11:09:00.000Z</time>
      </trkpt>
      <trkpt lat="48.68551" lon="1.75519">
        <ele>158.60000610352</ele>
        <time>2014-03-10T11:09:08.000Z</time>
      </trkpt>
      <trkpt lat="48.68537" lon="1.75527">
        <ele>158.19999694824</ele>
        <time>2014-03-10T11:09:18.000Z</time>
      </trkpt>
      <trkpt lat="48.68528" lon="1.75531">
        <ele>158</ele>
        <time>2014-03-10T11:09:26.000Z</time>
      </trkpt>
      <trkpt lat="48.68526" lon="1.75533">
        <ele>158</ele>
        <time>2014-03-10T11:09:28.000Z</time>
      </trkpt>
      <trkpt lat="48.68517" lon="1.7554">
        <ele>157.39999389648</ele>
        <time>2014-03-10T11:09:36.000Z</time>
      </trkpt>
      <trkpt lat="48.68509" lon="1.75541">
        <ele>157.19999694824</ele>
        <time>2014-03-10T11:09:42.000Z</time>
      </trkpt>
      <trkpt lat="48.68501" lon="1.75542">
        <ele>157</ele>
        <time>2014-03-10T11:09:49.000Z</time>
      </trkpt>
      <trkpt lat="48.68495" lon="1.75543">
        <ele>157</ele>
        <time>2014-03-10T11:09:56.000Z</time>
      </trkpt>
      <trkpt lat="48.68491" lon="1.75547">
        <ele>156.80000305176</ele>
        <time>2014-03-10T11:09:59.000Z</time>
      </trkpt>
      <trkpt lat="48.68476" lon="1.75556">
        <ele>156.39999389648</ele>
        <time>2014-03-10T11:10:08.000Z</time>
      </trkpt>
      <trkpt lat="48.68466" lon="1.75562">
        <ele>156.19999694824</ele>
        <time>2014-03-10T11:10:15.000Z</time>
      </trkpt>
      <trkpt lat="48.68465" lon="1.75562">
        <ele>156.19999694824</ele>
        <time>2014-03-10T11:10:16.000Z</time>
      </trkpt>
      <trkpt lat="48.68455" lon="1.75568">
        <ele>156</ele>
        <time>2014-03-10T11:10:24.000Z</time>
      </trkpt>
      <trkpt lat="48.68444" lon="1.75572">
        <ele>155.80000305176</ele>
        <time>2014-03-10T11:10:33.000Z</time>
      </trkpt>
      <trkpt lat="48.68433" lon="1.75576">
        <ele>155.60000610352</ele>
        <time>2014-03-10T11:10:42.000Z</time>
      </trkpt>
      <trkpt lat="48.68426" lon="1.75583">
        <ele>155</ele>
        <time>2014-03-10T11:10:49.000Z</time>
      </trkpt>
      <trkpt lat="48.68415" lon="1.7559">
        <ele>154.80000305176</ele>
        <time>2014-03-10T11:10:57.000Z</time>
      </trkpt>
      <trkpt lat="48.68405" lon="1.75598">
        <ele>154.39999389648</ele>
        <time>2014-03-10T11:11:06.000Z</time>
      </trkpt>
      <trkpt lat="48.68395" lon="1.75605">
        <ele>154</ele>
        <time>2014-03-10T11:11:14.000Z</time>
      </trkpt>
      <trkpt lat="48.68384" lon="1.7561">
        <ele>153.60000610352</ele>
        <time>2014-03-10T11:11:22.000Z</time>
      </trkpt>
      <trkpt lat="48.68374" lon="1.75614">
        <ele>153.19999694824</ele>
        <time>2014-03-10T11:11:32.000Z</time>
      </trkpt>
      <trkpt lat="48.68367" lon="1.75617">
        <ele>153</ele>
        <time>2014-03-10T11:11:41.000Z</time>
      </trkpt>
      <trkpt lat="48.68355" lon="1.75622">
        <ele>152.60000610352</ele>
        <time>2014-03-10T11:11:49.000Z</time>
      </trkpt>
      <trkpt lat="48.68354" lon="1.75623">
        <ele>152.60000610352</ele>
        <time>2014-03-10T11:11:50.000Z</time>
      </trkpt>
      <trkpt lat="48.68349" lon="1.75628">
        <ele>152.39999389648</ele>
        <time>2014-03-10T11:11:55.000Z</time>
      </trkpt>
      <trkpt lat="48.6834" lon="1.75634">
        <ele>152.19999694824</ele>
        <time>2014-03-10T11:12:03.000Z</time>
      </trkpt>
      <trkpt lat="48.6833" lon="1.75641">
        <ele>152</ele>
        <time>2014-03-10T11:12:12.000Z</time>
      </trkpt>
      <trkpt lat="48.6833" lon="1.75641">
        <ele>152</ele>
        <time>2014-03-10T11:12:14.000Z</time>
      </trkpt>
      <trkpt lat="48.68317" lon="1.75645">
        <ele>152.19999694824</ele>
        <time>2014-03-10T11:12:53.000Z</time>
      </trkpt>
      <trkpt lat="48.68307" lon="1.75648">
        <ele>152.39999389648</ele>
        <time>2014-03-10T11:13:00.000Z</time>
      </trkpt>
      <trkpt lat="48.68296" lon="1.75645">
        <ele>152.39999389648</ele>
        <time>2014-03-10T11:13:10.000Z</time>
      </trkpt>
      <trkpt lat="48.68285" lon="1.75641">
        <ele>152.60000610352</ele>
        <time>2014-03-10T11:13:19.000Z</time>
      </trkpt>
      <trkpt lat="48.68271" lon="1.75637">
        <ele>152.80000305176</ele>
        <time>2014-03-10T11:13:31.000Z</time>
      </trkpt>
      <trkpt lat="48.6826" lon="1.75632">
        <ele>152.80000305176</ele>
        <time>2014-03-10T11:13:41.000Z</time>
      </trkpt>
      <trkpt lat="48.68247" lon="1.75628">
        <ele>153</ele>
        <time>2014-03-10T11:13:52.000Z</time>
      </trkpt>
      <trkpt lat="48.68232" lon="1.75622">
        <ele>152.80000305176</ele>
        <time>2014-03-10T11:14:04.000Z</time>
      </trkpt>
      <trkpt lat="48.68222" lon="1.75619">
        <ele>152.60000610352</ele>
        <time>2014-03-10T11:14:13.000Z</time>
      </trkpt>
      <trkpt lat="48.68213" lon="1.75617">
        <ele>152.60000610352</ele>
        <time>2014-03-10T11:14:20.000Z</time>
      </trkpt>
      <trkpt lat="48.68202" lon="1.75615">
        <ele>152.39999389648</ele>
        <time>2014-03-10T11:14:29.000Z</time>
      </trkpt>
      <trkpt lat="48.68187" lon="1.7561">
        <ele>152.19999694824</ele>
        <time>2014-03-10T11:14:41.000Z</time>
      </trkpt>
      <trkpt lat="48.68178" lon="1.75605">
        <ele>152.19999694824</ele>
        <time>2014-03-10T11:14:49.000Z</time>
      </trkpt>
      <trkpt lat="48.68166" lon="1.75599">
        <ele>152</ele>
        <time>2014-03-10T11:14:59.000Z</time>
      </trkpt>
      <trkpt lat="48.68148" lon="1.75589">
        <ele>151.60000610352</ele>
        <time>2014-03-10T11:15:14.000Z</time>
      </trkpt>
      <trkpt lat="48.68136" lon="1.75582">
        <ele>151.19999694824</ele>
        <time>2014-03-10T11:15:24.000Z</time>
      </trkpt>
      <trkpt lat="48.68128" lon="1.75575">
        <ele>151.19999694824</ele>
        <time>2014-03-10T11:15:31.000Z</time>
      </trkpt>
      <trkpt lat="48.68121" lon="1.75571">
        <ele>151</ele>
        <time>2014-03-10T11:15:36.000Z</time>
      </trkpt>
      <trkpt lat="48.68109" lon="1.75559">
        <ele>150.80000305176</ele>
        <time>2014-03-10T11:15:46.000Z</time>
      </trkpt>
      <trkpt lat="48.68101" lon="1.75552">
        <ele>150.60000610352</ele>
        <time>2014-03-10T11:15:53.000Z</time>
      </trkpt>
      <trkpt lat="48.68093" lon="1.75545">
        <ele>150.19999694824</ele>
        <time>2014-03-10T11:16:00.000Z</time>
      </trkpt>
      <trkpt lat="48.68087" lon="1.75542">
        <ele>150</ele>
        <time>2014-03-10T11:16:07.000Z</time>
      </trkpt>
      <trkpt lat="48.68075" lon="1.75534">
        <ele>149.60000610352</ele>
        <time>2014-03-10T11:16:16.000Z</time>
      </trkpt>
      <trkpt lat="48.68063" lon="1.75525">
        <ele>149</ele>
        <time>2014-03-10T11:16:25.000Z</time>
      </trkpt>
      <trkpt lat="48.68053" lon="1.75516">
        <ele>148.39999389648</ele>
        <time>2014-03-10T11:16:34.000Z</time>
      </trkpt>
      <trkpt lat="48.68048" lon="1.75504">
        <ele>148.19999694824</ele>
        <time>2014-03-10T11:16:41.000Z</time>
      </trkpt>
      <trkpt lat="48.68049" lon="1.75486">
        <ele>148.39999389648</ele>
        <time>2014-03-10T11:16:49.000Z</time>
      </trkpt>
      <trkpt lat="48.68052" lon="1.75466">
        <ele>148.80000305176</ele>
        <time>2014-03-10T11:16:58.000Z</time>
      </trkpt>
      <trkpt lat="48.68056" lon="1.75437">
        <ele>149.19999694824</ele>
        <time>2014-03-10T11:17:11.000Z</time>
      </trkpt>
      <trkpt lat="48.6806" lon="1.75416">
        <ele>149.39999389648</ele>
        <time>2014-03-10T11:17:21.000Z</time>
      </trkpt>
      <trkpt lat="48.68064" lon="1.75391">
        <ele>149.80000305176</ele>
        <time>2014-03-10T11:17:33.000Z</time>
      </trkpt>
      <trkpt lat="48.68067" lon="1.75371">
        <ele>150</ele>
        <time>2014-03-10T11:17:42.000Z</time>
      </trkpt>
      <trkpt lat="48.68069" lon="1.75349">
        <ele>150.39999389648</ele>
        <time>2014-03-10T11:17:52.000Z</time>
      </trkpt>
      <trkpt lat="48.68069" lon="1.75345">
        <ele>150.39999389648</ele>
        <time>2014-03-10T11:17:57.000Z</time>
      </trkpt>
      <trkpt lat="48.6807" lon="1.75336">
        <ele>150.39999389648</ele>
        <time>2014-03-10T11:18:03.000Z</time>
      </trkpt>
      <trkpt lat="48.68072" lon="1.75316">
        <ele>150.60000610352</ele>
        <time>2014-03-10T11:18:11.000Z</time>
      </trkpt>
      <trkpt lat="48.68074" lon="1.75297">
        <ele>150.60000610352</ele>
        <time>2014-03-10T11:18:19.000Z</time>
      </trkpt>
      <trkpt lat="48.68076" lon="1.75278">
        <ele>150.60000610352</ele>
        <time>2014-03-10T11:18:28.000Z</time>
      </trkpt>
      <trkpt lat="48.68081" lon="1.75261">
        <ele>150.80000305176</ele>
        <time>2014-03-10T11:18:37.000Z</time>
      </trkpt>
      <trkpt lat="48.68087" lon="1.75244">
        <ele>151</ele>
        <time>2014-03-10T11:18:46.000Z</time>
      </trkpt>
      <trkpt lat="48.6809" lon="1.75239">
        <ele>151.19999694824</ele>
        <time>2014-03-10T11:18:52.000Z</time>
      </trkpt>
      <trkpt lat="48.68091" lon="1.75231">
        <ele>150.80000305176</ele>
        <time>2014-03-10T11:18:59.000Z</time>
      </trkpt>
      <trkpt lat="48.68098" lon="1.75218">
        <ele>151</ele>
        <time>2014-03-10T11:19:06.000Z</time>
      </trkpt>
      <trkpt lat="48.68105" lon="1.75206">
        <ele>151.19999694824</ele>
        <time>2014-03-10T11:19:13.000Z</time>
      </trkpt>
      <trkpt lat="48.68113" lon="1.75192">
        <ele>151.60000610352</ele>
        <time>2014-03-10T11:19:21.000Z</time>
      </trkpt>
      <trkpt lat="48.68118" lon="1.75184">
        <ele>151.80000305176</ele>
        <time>2014-03-10T11:19:26.000Z</time>
      </trkpt>
      <trkpt lat="48.68127" lon="1.75171">
        <ele>152.19999694824</ele>
        <time>2014-03-10T11:19:35.000Z</time>
      </trkpt>
      <trkpt lat="48.68137" lon="1.75153">
        <ele>152.39999389648</ele>
        <time>2014-03-10T11:19:46.000Z</time>
      </trkpt>
      <trkpt lat="48.68145" lon="1.75141">
        <ele>152.60000610352</ele>
        <time>2014-03-10T11:19:55.000Z</time>
      </trkpt>
      <trkpt lat="48.68151" lon="1.75133">
        <ele>152.80000305176</ele>
        <time>2014-03-10T11:20:01.000Z</time>
      </trkpt>
      <trkpt lat="48.6816" lon="1.75121">
        <ele>152.60000610352</ele>
        <time>2014-03-10T11:20:09.000Z</time>
      </trkpt>
      <trkpt lat="48.6816" lon="1.75119">
        <ele>152.60000610352</ele>
        <time>2014-03-10T11:20:10.000Z</time>
      </trkpt>
      <trkpt lat="48.68167" lon="1.75103">
        <ele>152.19999694824</ele>
        <time>2014-03-10T11:20:19.000Z</time>
      </trkpt>
      <trkpt lat="48.68175" lon="1.75086">
        <ele>152.39999389648</ele>
        <time>2014-03-10T11:20:28.000Z</time>
      </trkpt>
      <trkpt lat="48.68182" lon="1.75072">
        <ele>152.80000305176</ele>
        <time>2014-03-10T11:20:36.000Z</time>
      </trkpt>
      <trkpt lat="48.68187" lon="1.7506">
        <ele>153.19999694824</ele>
        <time>2014-03-10T11:20:43.000Z</time>
      </trkpt>
      <trkpt lat="48.68193" lon="1.75043">
        <ele>153.39999389648</ele>
        <time>2014-03-10T11:20:51.000Z</time>
      </trkpt>
      <trkpt lat="48.68199" lon="1.75024">
        <ele>153.39999389648</ele>
        <time>2014-03-10T11:21:00.000Z</time>
      </trkpt>
      <trkpt lat="48.68206" lon="1.75006">
        <ele>153.39999389648</ele>
        <time>2014-03-10T11:21:09.000Z</time>
      </trkpt>
      <trkpt lat="48.6821" lon="1.74989">
        <ele>153.39999389648</ele>
        <time>2014-03-10T11:21:18.000Z</time>
      </trkpt>
      <trkpt lat="48.68217" lon="1.74971">
        <ele>153.19999694824</ele>
        <time>2014-03-10T11:21:27.000Z</time>
      </trkpt>
      <trkpt lat="48.68218" lon="1.74965">
        <ele>153.19999694824</ele>
        <time>2014-03-10T11:21:30.000Z</time>
      </trkpt>
      <trkpt lat="48.68223" lon="1.74951">
        <ele>153</ele>
        <time>2014-03-10T11:21:38.000Z</time>
      </trkpt>
      <trkpt lat="48.68228" lon="1.74937">
        <ele>152.60000610352</ele>
        <time>2014-03-10T11:21:46.000Z</time>
      </trkpt>
      <trkpt lat="48.6823" lon="1.74921">
        <ele>152</ele>
        <time>2014-03-10T11:21:52.000Z</time>
      </trkpt>
      <trkpt lat="48.68235" lon="1.749">
        <ele>151.80000305176</ele>
        <time>2014-03-10T11:22:01.000Z</time>
      </trkpt>
      <trkpt lat="48.6824" lon="1.74886">
        <ele>151.80000305176</ele>
        <time>2014-03-10T11:22:09.000Z</time>
      </trkpt>
      <trkpt lat="48.68244" lon="1.74874">
        <ele>151.60000610352</ele>
        <time>2014-03-10T11:22:15.000Z</time>
      </trkpt>
      <trkpt lat="48.68247" lon="1.74869">
        <ele>151.60000610352</ele>
        <time>2014-03-10T11:22:18.000Z</time>
      </trkpt>
      <trkpt lat="48.6825" lon="1.74865">
        <ele>151.39999389648</ele>
        <time>2014-03-10T11:22:21.000Z</time>
      </trkpt>
      <trkpt lat="48.68258" lon="1.7485">
        <ele>152</ele>
        <time>2014-03-10T11:22:30.000Z</time>
      </trkpt>
      <trkpt lat="48.68267" lon="1.74832">
        <ele>153</ele>
        <time>2014-03-10T11:22:41.000Z</time>
      </trkpt>
      <trkpt lat="48.68271" lon="1.74825">
        <ele>153.39999389648</ele>
        <time>2014-03-10T11:22:45.000Z</time>
      </trkpt>
      <trkpt lat="48.68277" lon="1.74807">
        <ele>154.19999694824</ele>
        <time>2014-03-10T11:22:54.000Z</time>
      </trkpt>
      <trkpt lat="48.68282" lon="1.74798">
        <ele>154.60000610352</ele>
        <time>2014-03-10T11:23:00.000Z</time>
      </trkpt>
      <trkpt lat="48.68286" lon="1.74791">
        <ele>154.80000305176</ele>
        <time>2014-03-10T11:23:05.000Z</time>
      </trkpt>
      <trkpt lat="48.68295" lon="1.74775">
        <ele>155.19999694824</ele>
        <time>2014-03-10T11:23:14.000Z</time>
      </trkpt>
      <trkpt lat="48.68301" lon="1.7476">
        <ele>155.39999389648</ele>
        <time>2014-03-10T11:23:22.000Z</time>
      </trkpt>
      <trkpt lat="48.68309" lon="1.74746">
        <ele>155.39999389648</ele>
        <time>2014-03-10T11:23:31.000Z</time>
      </trkpt>
      <trkpt lat="48.68321" lon="1.74726">
        <ele>155.19999694824</ele>
        <time>2014-03-10T11:23:44.000Z</time>
      </trkpt>
      <trkpt lat="48.68331" lon="1.74704">
        <ele>154.39999389648</ele>
        <time>2014-03-10T11:23:55.000Z</time>
      </trkpt>
      <trkpt lat="48.68339" lon="1.74691">
        <ele>154.39999389648</ele>
        <time>2014-03-10T11:24:04.000Z</time>
      </trkpt>
      <trkpt lat="48.68344" lon="1.74679">
        <ele>154.19999694824</ele>
        <time>2014-03-10T11:24:11.000Z</time>
      </trkpt>
      <trkpt lat="48.68348" lon="1.74666">
        <ele>154</ele>
        <time>2014-03-10T11:24:18.000Z</time>
      </trkpt>
      <trkpt lat="48.68349" lon="1.74663">
        <ele>154.19999694824</ele>
        <time>2014-03-10T11:24:20.000Z</time>
      </trkpt>
      <trkpt lat="48.68354" lon="1.74649">
        <ele>154.60000610352</ele>
        <time>2014-03-10T11:24:28.000Z</time>
      </trkpt>
      <trkpt lat="48.6836" lon="1.74635">
        <ele>154.80000305176</ele>
        <time>2014-03-10T11:24:36.000Z</time>
      </trkpt>
      <trkpt lat="48.68362" lon="1.74629">
        <ele>154.80000305176</ele>
        <time>2014-03-10T11:24:39.000Z</time>
      </trkpt>
      <trkpt lat="48.68366" lon="1.74611">
        <ele>154.80000305176</ele>
        <time>2014-03-10T11:24:47.000Z</time>
      </trkpt>
      <trkpt lat="48.68369" lon="1.74594">
        <ele>154.80000305176</ele>
        <time>2014-03-10T11:24:54.000Z</time>
      </trkpt>
      <trkpt lat="48.68374" lon="1.74581">
        <ele>154.60000610352</ele>
        <time>2014-03-10T11:25:01.000Z</time>
      </trkpt>
      <trkpt lat="48.68382" lon="1.74581">
        <ele>154.39999389648</ele>
        <time>2014-03-10T11:25:08.000Z</time>
      </trkpt>
      <trkpt lat="48.68392" lon="1.74591">
        <ele>154.60000610352</ele>
        <time>2014-03-10T11:25:16.000Z</time>
      </trkpt>
      <trkpt lat="48.68393" lon="1.74593">
        <ele>154.60000610352</ele>
        <time>2014-03-10T11:25:18.000Z</time>
      </trkpt>
      <trkpt lat="48.68401" lon="1.74602">
        <ele>155</ele>
        <time>2014-03-10T11:25:26.000Z</time>
      </trkpt>
      <trkpt lat="48.68407" lon="1.74608">
        <ele>155.39999389648</ele>
        <time>2014-03-10T11:25:32.000Z</time>
      </trkpt>
      <trkpt lat="48.68412" lon="1.74622">
        <ele>156.19999694824</ele>
        <time>2014-03-10T11:25:40.000Z</time>
      </trkpt>
      <trkpt lat="48.68415" lon="1.74639">
        <ele>157.19999694824</ele>
        <time>2014-03-10T11:25:48.000Z</time>
      </trkpt>
      <trkpt lat="48.68419" lon="1.74649">
        <ele>158.19999694824</ele>
        <time>2014-03-10T11:25:55.000Z</time>
      </trkpt>
      <trkpt lat="48.6842" lon="1.74652">
        <ele>158.39999389648</ele>
        <time>2014-03-10T11:25:58.000Z</time>
      </trkpt>
      <trkpt lat="48.68418" lon="1.74662">
        <ele>158.80000305176</ele>
        <time>2014-03-10T11:26:05.000Z</time>
      </trkpt>
      <trkpt lat="48.68415" lon="1.74674">
        <ele>159.19999694824</ele>
        <time>2014-03-10T11:26:11.000Z</time>
      </trkpt>
      <trkpt lat="48.68412" lon="1.74681">
        <ele>159.39999389648</ele>
        <time>2014-03-10T11:26:15.000Z</time>
      </trkpt>
      <trkpt lat="48.68411" lon="1.74685">
        <ele>159.39999389648</ele>
        <time>2014-03-10T11:26:18.000Z</time>
      </trkpt>
      <trkpt lat="48.68412" lon="1.74696">
        <ele>160</ele>
        <time>2014-03-10T11:26:24.000Z</time>
      </trkpt>
      <trkpt lat="48.68412" lon="1.74704">
        <ele>160.39999389648</ele>
        <time>2014-03-10T11:26:30.000Z</time>
      </trkpt>
      <trkpt lat="48.68414" lon="1.74715">
        <ele>161.19999694824</ele>
        <time>2014-03-10T11:26:38.000Z</time>
      </trkpt>
      <trkpt lat="48.68415" lon="1.74725">
        <ele>161.60000610352</ele>
        <time>2014-03-10T11:26:43.000Z</time>
      </trkpt>
      <trkpt lat="48.68414" lon="1.74731">
        <ele>161.80000305176</ele>
        <time>2014-03-10T11:26:46.000Z</time>
      </trkpt>
      <trkpt lat="48.68413" lon="1.74736">
        <ele>162</ele>
        <time>2014-03-10T11:26:49.000Z</time>
      </trkpt>
      <trkpt lat="48.68414" lon="1.74745">
        <ele>162.60000610352</ele>
        <time>2014-03-10T11:26:54.000Z</time>
      </trkpt>
      <trkpt lat="48.68416" lon="1.74762">
        <ele>163.19999694824</ele>
        <time>2014-03-10T11:27:01.000Z</time>
      </trkpt>
      <trkpt lat="48.68418" lon="1.74773">
        <ele>163.60000610352</ele>
        <time>2014-03-10T11:27:07.000Z</time>
      </trkpt>
      <trkpt lat="48.68423" lon="1.74786">
        <ele>164.19999694824</ele>
        <time>2014-03-10T11:27:14.000Z</time>
      </trkpt>
      <trkpt lat="48.68423" lon="1.74791">
        <ele>164.19999694824</ele>
        <time>2014-03-10T11:27:16.000Z</time>
      </trkpt>
      <trkpt lat="48.68424" lon="1.74801">
        <ele>164.60000610352</ele>
        <time>2014-03-10T11:27:23.000Z</time>
      </trkpt>
      <trkpt lat="48.68425" lon="1.74816">
        <ele>165</ele>
        <time>2014-03-10T11:27:30.000Z</time>
      </trkpt>
      <trkpt lat="48.68426" lon="1.74825">
        <ele>165.19999694824</ele>
        <time>2014-03-10T11:27:34.000Z</time>
      </trkpt>
      <trkpt lat="48.68426" lon="1.74836">
        <ele>165.39999389648</ele>
        <time>2014-03-10T11:27:38.000Z</time>
      </trkpt>
      <trkpt lat="48.68428" lon="1.74845">
        <ele>165.60000610352</ele>
        <time>2014-03-10T11:27:43.000Z</time>
      </trkpt>
      <trkpt lat="48.68427" lon="1.74856">
        <ele>165.80000305176</ele>
        <time>2014-03-10T11:27:48.000Z</time>
      </trkpt>
      <trkpt lat="48.68429" lon="1.74866">
        <ele>166.19999694824</ele>
        <time>2014-03-10T11:27:54.000Z</time>
      </trkpt>
      <trkpt lat="48.6843" lon="1.74869">
        <ele>166.19999694824</ele>
        <time>2014-03-10T11:27:56.000Z</time>
      </trkpt>
      <trkpt lat="48.68431" lon="1.74882">
        <ele>166.60000610352</ele>
        <time>2014-03-10T11:28:02.000Z</time>
      </trkpt>
      <trkpt lat="48.68436" lon="1.74902">
        <ele>167.19999694824</ele>
        <time>2014-03-10T11:28:13.000Z</time>
      </trkpt>
      <trkpt lat="48.68438" lon="1.74915">
        <ele>167.39999389648</ele>
        <time>2014-03-10T11:28:20.000Z</time>
      </trkpt>
      <trkpt lat="48.6844" lon="1.7492">
        <ele>167.60000610352</ele>
        <time>2014-03-10T11:28:23.000Z</time>
      </trkpt>
      <trkpt lat="48.68442" lon="1.74935">
        <ele>167.80000305176</ele>
        <time>2014-03-10T11:28:31.000Z</time>
      </trkpt>
      <trkpt lat="48.68443" lon="1.74943">
        <ele>167.80000305176</ele>
        <time>2014-03-10T11:28:35.000Z</time>
      </trkpt>
      <trkpt lat="48.68445" lon="1.74959">
        <ele>167.80000305176</ele>
        <time>2014-03-10T11:28:43.000Z</time>
      </trkpt>
      <trkpt lat="48.68447" lon="1.74973">
        <ele>168</ele>
        <time>2014-03-10T11:28:50.000Z</time>
      </trkpt>
      <trkpt lat="48.68447" lon="1.74988">
        <ele>168</ele>
        <time>2014-03-10T11:28:57.000Z</time>
      </trkpt>
      <trkpt lat="48.68447" lon="1.75002">
        <ele>168</ele>
        <time>2014-03-10T11:29:03.000Z</time>
      </trkpt>
      <trkpt lat="48.68448" lon="1.75013">
        <ele>168.19999694824</ele>
        <time>2014-03-10T11:29:09.000Z</time>
      </trkpt>
      <trkpt lat="48.68448" lon="1.75014">
        <ele>168.19999694824</ele>
        <time>2014-03-10T11:29:12.000Z</time>
      </trkpt>
      <trkpt lat="48.6845" lon="1.75015">
        <ele>168.19999694824</ele>
        <time>2014-03-10T11:29:17.000Z</time>
      </trkpt>
      <trkpt lat="48.68451" lon="1.7502">
        <ele>168.19999694824</ele>
        <time>2014-03-10T11:29:21.000Z</time>
      </trkpt>
      <trkpt lat="48.68451" lon="1.7502">
        <ele>168.19999694824</ele>
        <time>2014-03-10T11:29:22.000Z</time>
      </trkpt>
      <trkpt lat="48.6846" lon="1.75053">
        <ele>168.60000610352</ele>
        <time>2014-03-10T11:30:18.000Z</time>
      </trkpt>
      <trkpt lat="48.6846" lon="1.75053">
        <ele>168.60000610352</ele>
        <time>2014-03-10T11:30:19.000Z</time>
      </trkpt>
      <trkpt lat="48.68462" lon="1.75053">
        <ele>168.60000610352</ele>
        <time>2014-03-10T11:30:22.000Z</time>
      </trkpt>
      <trkpt lat="48.68464" lon="1.75054">
        <ele>168.80000305176</ele>
        <time>2014-03-10T11:30:26.000Z</time>
      </trkpt>
      <trkpt lat="48.68452" lon="1.75083">
        <ele>168.80000305176</ele>
        <time>2014-03-10T11:31:18.000Z</time>
      </trkpt>
      <trkpt lat="48.68451" lon="1.75085">
        <ele>168.80000305176</ele>
        <time>2014-03-10T11:31:19.000Z</time>
      </trkpt>
      <trkpt lat="48.68453" lon="1.75101">
        <ele>169</ele>
        <time>2014-03-10T11:31:27.000Z</time>
      </trkpt>
      <trkpt lat="48.68455" lon="1.75111">
        <ele>169</ele>
        <time>2014-03-10T11:31:32.000Z</time>
      </trkpt>
      <trkpt lat="48.68457" lon="1.75123">
        <ele>169.19999694824</ele>
        <time>2014-03-10T11:31:38.000Z</time>
      </trkpt>
      <trkpt lat="48.68462" lon="1.75134">
        <ele>169.39999389648</ele>
        <time>2014-03-10T11:31:45.000Z</time>
      </trkpt>
      <trkpt lat="48.68463" lon="1.75144">
        <ele>169.39999389648</ele>
        <time>2014-03-10T11:31:51.000Z</time>
      </trkpt>
      <trkpt lat="48.68463" lon="1.75147">
        <ele>169.39999389648</ele>
        <time>2014-03-10T11:31:53.000Z</time>
      </trkpt>
      <trkpt lat="48.68466" lon="1.75165">
        <ele>169.60000610352</ele>
        <time>2014-03-10T11:32:02.000Z</time>
      </trkpt>
      <trkpt lat="48.68469" lon="1.75174">
        <ele>169.60000610352</ele>
        <time>2014-03-10T11:32:08.000Z</time>
      </trkpt>
      <trkpt lat="48.68469" lon="1.75182">
        <ele>169.60000610352</ele>
        <time>2014-03-10T11:32:12.000Z</time>
      </trkpt>
      <trkpt lat="48.68471" lon="1.75189">
        <ele>169.60000610352</ele>
        <time>2014-03-10T11:32:16.000Z</time>
      </trkpt>
      <trkpt lat="48.68471" lon="1.75208">
        <ele>169.39999389648</ele>
        <time>2014-03-10T11:32:24.000Z</time>
      </trkpt>
      <trkpt lat="48.68473" lon="1.75224">
        <ele>169.39999389648</ele>
        <time>2014-03-10T11:32:32.000Z</time>
      </trkpt>
      <trkpt lat="48.68473" lon="1.75226">
        <ele>169.39999389648</ele>
        <time>2014-03-10T11:32:33.000Z</time>
      </trkpt>
      <trkpt lat="48.68477" lon="1.75238">
        <ele>169.39999389648</ele>
        <time>2014-03-10T11:32:39.000Z</time>
      </trkpt>
      <trkpt lat="48.68477" lon="1.7524">
        <ele>169.39999389648</ele>
        <time>2014-03-10T11:32:40.000Z</time>
      </trkpt>
      <trkpt lat="48.68479" lon="1.75254">
        <ele>169.19999694824</ele>
        <time>2014-03-10T11:32:46.000Z</time>
      </trkpt>
      <trkpt lat="48.6848" lon="1.75262">
        <ele>169</ele>
        <time>2014-03-10T11:32:51.000Z</time>
      </trkpt>
      <trkpt lat="48.68482" lon="1.75279">
        <ele>168.80000305176</ele>
        <time>2014-03-10T11:33:00.000Z</time>
      </trkpt>
      <trkpt lat="48.68484" lon="1.75292">
        <ele>168.60000610352</ele>
        <time>2014-03-10T11:33:07.000Z</time>
      </trkpt>
      <trkpt lat="48.68484" lon="1.75296">
        <ele>168.60000610352</ele>
        <time>2014-03-10T11:33:09.000Z</time>
      </trkpt>
      <trkpt lat="48.68486" lon="1.75319">
        <ele>168.39999389648</ele>
        <time>2014-03-10T11:33:19.000Z</time>
      </trkpt>
      <trkpt lat="48.68489" lon="1.75335">
        <ele>168</ele>
        <time>2014-03-10T11:33:26.000Z</time>
      </trkpt>
      <trkpt lat="48.6849" lon="1.75351">
        <ele>167.19999694824</ele>
        <time>2014-03-10T11:33:34.000Z</time>
      </trkpt>
      <trkpt lat="48.68492" lon="1.7536">
        <ele>166.80000305176</ele>
        <time>2014-03-10T11:33:39.000Z</time>
      </trkpt>
      <trkpt lat="48.68494" lon="1.75371">
        <ele>166.19999694824</ele>
        <time>2014-03-10T11:33:44.000Z</time>
      </trkpt>
      <trkpt lat="48.68495" lon="1.75378">
        <ele>166</ele>
        <time>2014-03-10T11:33:47.000Z</time>
      </trkpt>
      <trkpt lat="48.68495" lon="1.75382">
        <ele>165.80000305176</ele>
        <time>2014-03-10T11:33:49.000Z</time>
      </trkpt>
      <trkpt lat="48.68498" lon="1.75396">
        <ele>165</ele>
        <time>2014-03-10T11:33:57.000Z</time>
      </trkpt>
      <trkpt lat="48.685" lon="1.75409">
        <ele>164.39999389648</ele>
        <time>2014-03-10T11:34:03.000Z</time>
      </trkpt>
      <trkpt lat="48.68502" lon="1.75416">
        <ele>164</ele>
        <time>2014-03-10T11:34:07.000Z</time>
      </trkpt>
      <trkpt lat="48.68502" lon="1.7543">
        <ele>163.19999694824</ele>
        <time>2014-03-10T11:34:12.000Z</time>
      </trkpt>
      <trkpt lat="48.68503" lon="1.75448">
        <ele>162</ele>
        <time>2014-03-10T11:34:19.000Z</time>
      </trkpt>
      <trkpt lat="48.68504" lon="1.75455">
        <ele>161.60000610352</ele>
        <time>2014-03-10T11:34:22.000Z</time>
      </trkpt>
      <trkpt lat="48.68507" lon="1.75471">
        <ele>160.60000610352</ele>
        <time>2014-03-10T11:34:30.000Z</time>
      </trkpt>
      <trkpt lat="48.68508" lon="1.75485">
        <ele>159.80000305176</ele>
        <time>2014-03-10T11:34:36.000Z</time>
      </trkpt>
      <trkpt lat="48.68509" lon="1.75497">
        <ele>159.19999694824</ele>
        <time>2014-03-10T11:34:41.000Z</time>
      </trkpt>
      <trkpt lat="48.6851" lon="1.75515">
        <ele>158.39999389648</ele>
        <time>2014-03-10T11:34:48.000Z</time>
      </trkpt>
      <trkpt lat="48.68513" lon="1.75528">
        <ele>157.80000305176</ele>
        <time>2014-03-10T11:34:54.000Z</time>
      </trkpt>
      <trkpt lat="48.68519" lon="1.75532">
        <ele>157.80000305176</ele>
        <time>2014-03-10T11:35:00.000Z</time>
      </trkpt>
      <trkpt lat="48.68522" lon="1.7553">
        <ele>158</ele>
        <time>2014-03-10T11:35:03.000Z</time>
      </trkpt>
      <trkpt lat="48.68535" lon="1.75524">
        <ele>158.39999389648</ele>
        <time>2014-03-10T11:35:13.000Z</time>
      </trkpt>
      <trkpt lat="48.68544" lon="1.7552">
        <ele>158.60000610352</ele>
        <time>2014-03-10T11:35:20.000Z</time>
      </trkpt>
      <trkpt lat="48.68553" lon="1.75517">
        <ele>158.80000305176</ele>
        <time>2014-03-10T11:35:27.000Z</time>
      </trkpt>
      <trkpt lat="48.68562" lon="1.75514">
        <ele>158.80000305176</ele>
        <time>2014-03-10T11:35:33.000Z</time>
      </trkpt>
      <trkpt lat="48.68573" lon="1.75508">
        <ele>159</ele>
        <time>2014-03-10T11:35:38.000Z</time>
      </trkpt>
      <trkpt lat="48.68594" lon="1.75492">
        <ele>159.19999694824</ele>
        <time>2014-03-10T11:35:44.000Z</time>
      </trkpt>
      <trkpt lat="48.68616" lon="1.75478">
        <ele>159.19999694824</ele>
        <time>2014-03-10T11:35:49.000Z</time>
      </trkpt>
      <trkpt lat="48.68631" lon="1.75467">
        <ele>159</ele>
        <time>2014-03-10T11:35:52.000Z</time>
      </trkpt>
      <trkpt lat="48.68666" lon="1.75448">
        <ele>158.19999694824</ele>
        <time>2014-03-10T11:35:59.000Z</time>
      </trkpt>
      <trkpt lat="48.6869" lon="1.75435">
        <ele>157.60000610352</ele>
        <time>2014-03-10T11:36:05.000Z</time>
      </trkpt>
      <trkpt lat="48.68717" lon="1.75423">
        <ele>157.19999694824</ele>
        <time>2014-03-10T11:36:11.000Z</time>
      </trkpt>
      <trkpt lat="48.68725" lon="1.75418">
        <ele>157</ele>
        <time>2014-03-10T11:36:13.000Z</time>
      </trkpt>
      <trkpt lat="48.68737" lon="1.75413">
        <ele>157</ele>
        <time>2014-03-10T11:36:17.000Z</time>
      </trkpt>
      <trkpt lat="48.68744" lon="1.75409">
        <ele>156.80000305176</ele>
        <time>2014-03-10T11:36:22.000Z</time>
      </trkpt>
      <trkpt lat="48.68751" lon="1.75406">
        <ele>156.80000305176</ele>
        <time>2014-03-10T11:36:26.000Z</time>
      </trkpt>
      <trkpt lat="48.68763" lon="1.754">
        <ele>156.80000305176</ele>
        <time>2014-03-10T11:36:32.000Z</time>
      </trkpt>
      <trkpt lat="48.6877" lon="1.75396">
        <ele>156.60000610352</ele>
        <time>2014-03-10T11:36:36.000Z</time>
      </trkpt>
      <trkpt lat="48.6878" lon="1.75389">
        <ele>156.60000610352</ele>
        <time>2014-03-10T11:36:43.000Z</time>
      </trkpt>
      <trkpt lat="48.68787" lon="1.75384">
        <ele>156.39999389648</ele>
        <time>2014-03-10T11:36:49.000Z</time>
      </trkpt>
      <trkpt lat="48.688" lon="1.75379">
        <ele>156.39999389648</ele>
        <time>2014-03-10T11:36:57.000Z</time>
      </trkpt>
      <trkpt lat="48.68809" lon="1.75374">
        <ele>156.39999389648</ele>
        <time>2014-03-10T11:37:05.000Z</time>
      </trkpt>
      <trkpt lat="48.68809" lon="1.75374">
        <ele>156.39999389648</ele>
        <time>2014-03-10T11:37:06.000Z</time>
      </trkpt>
      <trkpt lat="48.68814" lon="1.7537">
        <ele>156.19999694824</ele>
        <time>2014-03-10T11:37:15.000Z</time>
      </trkpt>
      <trkpt lat="48.68827" lon="1.75363">
        <ele>156</ele>
        <time>2014-03-10T11:37:22.000Z</time>
      </trkpt>
      <trkpt lat="48.68839" lon="1.75356">
        <ele>155.80000305176</ele>
        <time>2014-03-10T11:37:30.000Z</time>
      </trkpt>
      <trkpt lat="48.6885" lon="1.75351">
        <ele>155.39999389648</ele>
        <time>2014-03-10T11:37:37.000Z</time>
      </trkpt>
      <trkpt lat="48.68855" lon="1.75349">
        <ele>155.39999389648</ele>
        <time>2014-03-10T11:37:43.000Z</time>
      </trkpt>
      <trkpt lat="48.68863" lon="1.75345">
        <ele>155</ele>
        <time>2014-03-10T11:38:00.000Z</time>
      </trkpt>
      <trkpt lat="48.68871" lon="1.7534">
        <ele>154.80000305176</ele>
        <time>2014-03-10T11:38:05.000Z</time>
      </trkpt>
      <trkpt lat="48.68881" lon="1.75333">
        <ele>154.39999389648</ele>
        <time>2014-03-10T11:38:13.000Z</time>
      </trkpt>
      <trkpt lat="48.68893" lon="1.75326">
        <ele>154.19999694824</ele>
        <time>2014-03-10T11:38:22.000Z</time>
      </trkpt>
      <trkpt lat="48.68899" lon="1.75322">
        <ele>154</ele>
        <time>2014-03-10T11:38:26.000Z</time>
      </trkpt>
      <trkpt lat="48.68908" lon="1.75318">
        <ele>154</ele>
        <time>2014-03-10T11:38:33.000Z</time>
      </trkpt>
      <trkpt lat="48.68912" lon="1.75317">
        <ele>153.80000305176</ele>
        <time>2014-03-10T11:38:38.000Z</time>
      </trkpt>
      <trkpt lat="48.68912" lon="1.75318">
        <ele>153.80000305176</ele>
        <time>2014-03-10T11:38:39.000Z</time>
      </trkpt>
      <trkpt lat="48.68932" lon="1.75304">
        <ele>154.19999694824</ele>
        <time>2014-03-10T11:39:29.000Z</time>
      </trkpt>
      <trkpt lat="48.68941" lon="1.75299">
        <ele>154.39999389648</ele>
        <time>2014-03-10T11:39:34.000Z</time>
      </trkpt>
      <trkpt lat="48.68948" lon="1.75296">
        <ele>154.60000610352</ele>
        <time>2014-03-10T11:39:39.000Z</time>
      </trkpt>
      <trkpt lat="48.68955" lon="1.75287">
        <ele>154.60000610352</ele>
        <time>2014-03-10T11:39:45.000Z</time>
      </trkpt>
      <trkpt lat="48.68966" lon="1.75279">
        <ele>154.80000305176</ele>
        <time>2014-03-10T11:39:53.000Z</time>
      </trkpt>
      <trkpt lat="48.68978" lon="1.75272">
        <ele>155</ele>
        <time>2014-03-10T11:40:01.000Z</time>
      </trkpt>
      <trkpt lat="48.68992" lon="1.7527">
        <ele>155.19999694824</ele>
        <time>2014-03-10T11:40:10.000Z</time>
      </trkpt>
      <trkpt lat="48.68993" lon="1.7527">
        <ele>155.19999694824</ele>
        <time>2014-03-10T11:40:11.000Z</time>
      </trkpt>
      <trkpt lat="48.69002" lon="1.75273">
        <ele>155.60000610352</ele>
        <time>2014-03-10T11:40:18.000Z</time>
      </trkpt>
      <trkpt lat="48.69005" lon="1.75273">
        <ele>155.80000305176</ele>
        <time>2014-03-10T11:40:20.000Z</time>
      </trkpt>
      <trkpt lat="48.69016" lon="1.75278">
        <ele>156.39999389648</ele>
        <time>2014-03-10T11:40:27.000Z</time>
      </trkpt>
      <trkpt lat="48.69029" lon="1.75291">
        <ele>157</ele>
        <time>2014-03-10T11:40:36.000Z</time>
      </trkpt>
      <trkpt lat="48.69039" lon="1.753">
        <ele>157.60000610352</ele>
        <time>2014-03-10T11:40:43.000Z</time>
      </trkpt>
      <trkpt lat="48.69053" lon="1.75311">
        <ele>158</ele>
        <time>2014-03-10T11:40:53.000Z</time>
      </trkpt>
      <trkpt lat="48.69062" lon="1.75319">
        <ele>158.39999389648</ele>
        <time>2014-03-10T11:41:01.000Z</time>
      </trkpt>
      <trkpt lat="48.69075" lon="1.75331">
        <ele>158.80000305176</ele>
        <time>2014-03-10T11:41:11.000Z</time>
      </trkpt>
      <trkpt lat="48.69083" lon="1.75339">
        <ele>158.80000305176</ele>
        <time>2014-03-10T11:41:18.000Z</time>
      </trkpt>
      <trkpt lat="48.69093" lon="1.75349">
        <ele>158.80000305176</ele>
        <time>2014-03-10T11:41:27.000Z</time>
      </trkpt>
      <trkpt lat="48.691" lon="1.75357">
        <ele>158.80000305176</ele>
        <time>2014-03-10T11:41:34.000Z</time>
      </trkpt>
      <trkpt lat="48.6911" lon="1.75366">
        <ele>158.80000305176</ele>
        <time>2014-03-10T11:41:42.000Z</time>
      </trkpt>
      <trkpt lat="48.69122" lon="1.75378">
        <ele>158.80000305176</ele>
        <time>2014-03-10T11:41:52.000Z</time>
      </trkpt>
      <trkpt lat="48.69131" lon="1.75385">
        <ele>158.60000610352</ele>
        <time>2014-03-10T11:41:59.000Z</time>
      </trkpt>
      <trkpt lat="48.69141" lon="1.75394">
        <ele>158.60000610352</ele>
        <time>2014-03-10T11:42:07.000Z</time>
      </trkpt>
      <trkpt lat="48.69151" lon="1.75405">
        <ele>158.19999694824</ele>
        <time>2014-03-10T11:42:15.000Z</time>
      </trkpt>
      <trkpt lat="48.69162" lon="1.75414">
        <ele>158</ele>
        <time>2014-03-10T11:42:23.000Z</time>
      </trkpt>
      <trkpt lat="48.69169" lon="1.7542">
        <ele>158</ele>
        <time>2014-03-10T11:42:29.000Z</time>
      </trkpt>
      <trkpt lat="48.6918" lon="1.75431">
        <ele>158.19999694824</ele>
        <time>2014-03-10T11:42:38.000Z</time>
      </trkpt>
      <trkpt lat="48.69188" lon="1.7544">
        <ele>158.19999694824</ele>
        <time>2014-03-10T11:42:45.000Z</time>
      </trkpt>
      <trkpt lat="48.69195" lon="1.75448">
        <ele>158.19999694824</ele>
        <time>2014-03-10T11:42:51.000Z</time>
      </trkpt>
      <trkpt lat="48.69206" lon="1.75456">
        <ele>158.19999694824</ele>
        <time>2014-03-10T11:42:59.000Z</time>
      </trkpt>
      <trkpt lat="48.69214" lon="1.75466">
        <ele>158.19999694824</ele>
        <time>2014-03-10T11:43:06.000Z</time>
      </trkpt>
      <trkpt lat="48.69226" lon="1.75476">
        <ele>158.19999694824</ele>
        <time>2014-03-10T11:43:15.000Z</time>
      </trkpt>
      <trkpt lat="48.69237" lon="1.75485">
        <ele>158.19999694824</ele>
        <time>2014-03-10T11:43:23.000Z</time>
      </trkpt>
      <trkpt lat="48.69247" lon="1.75495">
        <ele>158</ele>
        <time>2014-03-10T11:43:31.000Z</time>
      </trkpt>
      <trkpt lat="48.6925" lon="1.75497">
        <ele>158</ele>
        <time>2014-03-10T11:43:33.000Z</time>
      </trkpt>
      <trkpt lat="48.6926" lon="1.75507">
        <ele>158.39999389648</ele>
        <time>2014-03-10T11:43:41.000Z</time>
      </trkpt>
      <trkpt lat="48.6927" lon="1.75519">
        <ele>158.80000305176</ele>
        <time>2014-03-10T11:43:50.000Z</time>
      </trkpt>
      <trkpt lat="48.69271" lon="1.7552">
        <ele>158.80000305176</ele>
        <time>2014-03-10T11:43:51.000Z</time>
      </trkpt>
      <trkpt lat="48.69278" lon="1.75526">
        <ele>159</ele>
        <time>2014-03-10T11:43:57.000Z</time>
      </trkpt>
      <trkpt lat="48.69281" lon="1.75531">
        <ele>159.19999694824</ele>
        <time>2014-03-10T11:44:01.000Z</time>
      </trkpt>
      <trkpt lat="48.69284" lon="1.75535">
        <ele>159.19999694824</ele>
        <time>2014-03-10T11:44:04.000Z</time>
      </trkpt>
      <trkpt lat="48.69287" lon="1.75535">
        <ele>159.39999389648</ele>
        <time>2014-03-10T11:44:06.000Z</time>
      </trkpt>
      <trkpt lat="48.6929" lon="1.75535">
        <ele>159.39999389648</ele>
        <time>2014-03-10T11:44:08.000Z</time>
      </trkpt>
      <trkpt lat="48.69292" lon="1.75538">
        <ele>159.60000610352</ele>
        <time>2014-03-10T11:44:10.000Z</time>
      </trkpt>
      <trkpt lat="48.69292" lon="1.75538">
        <ele>159.60000610352</ele>
        <time>2014-03-10T11:44:10.000Z</time>
      </trkpt>
      <trkpt lat="48.69294" lon="1.7554">
        <ele>159.60000610352</ele>
        <time>2014-03-10T11:44:11.000Z</time>
      </trkpt>
      <trkpt lat="48.69295" lon="1.75542">
        <ele>159.60000610352</ele>
        <time>2014-03-10T11:44:14.000Z</time>
      </trkpt>
      <trkpt lat="48.69295" lon="1.75544">
        <ele>159.60000610352</ele>
        <time>2014-03-10T11:44:15.000Z</time>
      </trkpt>
      <trkpt lat="48.69303" lon="1.75555">
        <ele>159.80000305176</ele>
        <time>2014-03-10T11:44:19.000Z</time>
      </trkpt>
      <trkpt lat="48.69308" lon="1.75561">
        <ele>160.19999694824</ele>
        <time>2014-03-10T11:44:24.000Z</time>
      </trkpt>
      <trkpt lat="48.69316" lon="1.75571">
        <ele>160.39999389648</ele>
        <time>2014-03-10T11:44:31.000Z</time>
      </trkpt>
      <trkpt lat="48.69324" lon="1.7558">
        <ele>160.60000610352</ele>
        <time>2014-03-10T11:44:39.000Z</time>
      </trkpt>
      <trkpt lat="48.69333" lon="1.75587">
        <ele>161</ele>
        <time>2014-03-10T11:44:46.000Z</time>
      </trkpt>
      <trkpt lat="48.69345" lon="1.75591">
        <ele>161</ele>
        <time>2014-03-10T11:44:54.000Z</time>
      </trkpt>
      <trkpt lat="48.69355" lon="1.75592">
        <ele>161</ele>
        <time>2014-03-10T11:45:01.000Z</time>
      </trkpt>
      <trkpt lat="48.69356" lon="1.75592">
        <ele>161</ele>
        <time>2014-03-10T11:45:02.000Z</time>
      </trkpt>
      <trkpt lat="48.69362" lon="1.75593">
        <ele>161</ele>
        <time>2014-03-10T11:45:07.000Z</time>
      </trkpt>
      <trkpt lat="48.69376" lon="1.75595">
        <ele>160.80000305176</ele>
        <time>2014-03-10T11:45:16.000Z</time>
      </trkpt>
      <trkpt lat="48.69386" lon="1.75597">
        <ele>160.80000305176</ele>
        <time>2014-03-10T11:45:23.000Z</time>
      </trkpt>
      <trkpt lat="48.69394" lon="1.75596">
        <ele>160.80000305176</ele>
        <time>2014-03-10T11:45:29.000Z</time>
      </trkpt>
      <trkpt lat="48.69404" lon="1.75598">
        <ele>160.60000610352</ele>
        <time>2014-03-10T11:45:36.000Z</time>
      </trkpt>
      <trkpt lat="48.69414" lon="1.75597">
        <ele>160.60000610352</ele>
        <time>2014-03-10T11:45:42.000Z</time>
      </trkpt>
      <trkpt lat="48.69428" lon="1.75597">
        <ele>160</ele>
        <time>2014-03-10T11:45:51.000Z</time>
      </trkpt>
      <trkpt lat="48.69441" lon="1.75597">
        <ele>159.39999389648</ele>
        <time>2014-03-10T11:46:00.000Z</time>
      </trkpt>
      <trkpt lat="48.69455" lon="1.75593">
        <ele>158.60000610352</ele>
        <time>2014-03-10T11:46:09.000Z</time>
      </trkpt>
      <trkpt lat="48.69465" lon="1.75593">
        <ele>158.19999694824</ele>
        <time>2014-03-10T11:46:16.000Z</time>
      </trkpt>
      <trkpt lat="48.69471" lon="1.75589">
        <ele>157.60000610352</ele>
        <time>2014-03-10T11:46:21.000Z</time>
      </trkpt>
      <trkpt lat="48.69486" lon="1.75582">
        <ele>156.60000610352</ele>
        <time>2014-03-10T11:46:32.000Z</time>
      </trkpt>
      <trkpt lat="48.69501" lon="1.75574">
        <ele>155.80000305176</ele>
        <time>2014-03-10T11:46:43.000Z</time>
      </trkpt>
      <trkpt lat="48.69513" lon="1.75568">
        <ele>155.60000610352</ele>
        <time>2014-03-10T11:46:52.000Z</time>
      </trkpt>
      <trkpt lat="48.69534" lon="1.75559">
        <ele>155.60000610352</ele>
        <time>2014-03-10T11:47:07.000Z</time>
      </trkpt>
      <trkpt lat="48.69549" lon="1.75552">
        <ele>155.60000610352</ele>
        <time>2014-03-10T11:47:18.000Z</time>
      </trkpt>
      <trkpt lat="48.69562" lon="1.75547">
        <ele>155.80000305176</ele>
        <time>2014-03-10T11:47:27.000Z</time>
      </trkpt>
      <trkpt lat="48.69576" lon="1.75541">
        <ele>156</ele>
        <time>2014-03-10T11:47:37.000Z</time>
      </trkpt>
      <trkpt lat="48.69588" lon="1.75536">
        <ele>156.19999694824</ele>
        <time>2014-03-10T11:47:47.000Z</time>
      </trkpt>
      <trkpt lat="48.696" lon="1.75529">
        <ele>156.60000610352</ele>
        <time>2014-03-10T11:47:56.000Z</time>
      </trkpt>
      <trkpt lat="48.69612" lon="1.75524">
        <ele>157</ele>
        <time>2014-03-10T11:48:04.000Z</time>
      </trkpt>
      <trkpt lat="48.69623" lon="1.75519">
        <ele>157.39999389648</ele>
        <time>2014-03-10T11:48:12.000Z</time>
      </trkpt>
      <trkpt lat="48.69639" lon="1.75511">
        <ele>158</ele>
        <time>2014-03-10T11:48:24.000Z</time>
      </trkpt>
      <trkpt lat="48.69642" lon="1.7551">
        <ele>158</ele>
        <time>2014-03-10T11:48:29.000Z</time>
      </trkpt>
      <trkpt lat="48.69648" lon="1.75508">
        <ele>158.19999694824</ele>
        <time>2014-03-10T11:48:55.000Z</time>
      </trkpt>
      <trkpt lat="48.6966" lon="1.75502">
        <ele>158.80000305176</ele>
        <time>2014-03-10T11:49:03.000Z</time>
      </trkpt>
      <trkpt lat="48.69673" lon="1.75497">
        <ele>159.39999389648</ele>
        <time>2014-03-10T11:49:12.000Z</time>
      </trkpt>
      <trkpt lat="48.69688" lon="1.7549">
        <ele>160.60000610352</ele>
        <time>2014-03-10T11:49:24.000Z</time>
      </trkpt>
      <trkpt lat="48.69706" lon="1.75481">
        <ele>161.80000305176</ele>
        <time>2014-03-10T11:49:38.000Z</time>
      </trkpt>
      <trkpt lat="48.69718" lon="1.75478">
        <ele>162.39999389648</ele>
        <time>2014-03-10T11:49:47.000Z</time>
      </trkpt>
      <trkpt lat="48.69728" lon="1.75474">
        <ele>163.19999694824</ele>
        <time>2014-03-10T11:49:55.000Z</time>
      </trkpt>
      <trkpt lat="48.69739" lon="1.75467">
        <ele>164</ele>
        <time>2014-03-10T11:50:04.000Z</time>
      </trkpt>
      <trkpt lat="48.69749" lon="1.75464">
        <ele>164.60000610352</ele>
        <time>2014-03-10T11:50:12.000Z</time>
      </trkpt>
      <trkpt lat="48.69759" lon="1.75457">
        <ele>165.39999389648</ele>
        <time>2014-03-10T11:50:20.000Z</time>
      </trkpt>
      <trkpt lat="48.69768" lon="1.75452">
        <ele>166</ele>
        <time>2014-03-10T11:50:27.000Z</time>
      </trkpt>
      <trkpt lat="48.69779" lon="1.75448">
        <ele>166.60000610352</ele>
        <time>2014-03-10T11:50:35.000Z</time>
      </trkpt>
      <trkpt lat="48.69789" lon="1.75445">
        <ele>167.19999694824</ele>
        <time>2014-03-10T11:50:42.000Z</time>
      </trkpt>
      <trkpt lat="48.69794" lon="1.75444">
        <ele>167.39999389648</ele>
        <time>2014-03-10T11:50:46.000Z</time>
      </trkpt>
      <trkpt lat="48.69802" lon="1.75443">
        <ele>167.80000305176</ele>
        <time>2014-03-10T11:50:53.000Z</time>
      </trkpt>
      <trkpt lat="48.69812" lon="1.75434">
        <ele>168.60000610352</ele>
        <time>2014-03-10T11:51:01.000Z</time>
      </trkpt>
      <trkpt lat="48.69821" lon="1.7543">
        <ele>169</ele>
        <time>2014-03-10T11:51:08.000Z</time>
      </trkpt>
      <trkpt lat="48.6983" lon="1.75424">
        <ele>169.60000610352</ele>
        <time>2014-03-10T11:51:15.000Z</time>
      </trkpt>
      <trkpt lat="48.6984" lon="1.75419">
        <ele>170</ele>
        <time>2014-03-10T11:51:23.000Z</time>
      </trkpt>
      <trkpt lat="48.69845" lon="1.75416">
        <ele>170.39999389648</ele>
        <time>2014-03-10T11:51:29.000Z</time>
      </trkpt>
      <trkpt lat="48.69851" lon="1.75414">
        <ele>170.39999389648</ele>
        <time>2014-03-10T11:51:33.000Z</time>
      </trkpt>
      <trkpt lat="48.6986" lon="1.7541">
        <ele>170.80000305176</ele>
        <time>2014-03-10T11:51:40.000Z</time>
      </trkpt>
      <trkpt lat="48.69861" lon="1.75409">
        <ele>170.80000305176</ele>
        <time>2014-03-10T11:51:41.000Z</time>
      </trkpt>
      <trkpt lat="48.69872" lon="1.75402">
        <ele>171.19999694824</ele>
        <time>2014-03-10T11:51:49.000Z</time>
      </trkpt>
      <trkpt lat="48.6988" lon="1.75394">
        <ele>171.60000610352</ele>
        <time>2014-03-10T11:51:56.000Z</time>
      </trkpt>
      <trkpt lat="48.69881" lon="1.75393">
        <ele>171.60000610352</ele>
        <time>2014-03-10T11:51:57.000Z</time>
      </trkpt>
      <trkpt lat="48.69891" lon="1.7539">
        <ele>171.80000305176</ele>
        <time>2014-03-10T11:52:04.000Z</time>
      </trkpt>
      <trkpt lat="48.69899" lon="1.75387">
        <ele>172</ele>
        <time>2014-03-10T11:52:10.000Z</time>
      </trkpt>
      <trkpt lat="48.699" lon="1.75387">
        <ele>172</ele>
        <time>2014-03-10T11:52:11.000Z</time>
      </trkpt>
      <trkpt lat="48.69912" lon="1.75381">
        <ele>172.39999389648</ele>
        <time>2014-03-10T11:52:19.000Z</time>
      </trkpt>
      <trkpt lat="48.69922" lon="1.75376">
        <ele>172.39999389648</ele>
        <time>2014-03-10T11:52:26.000Z</time>
      </trkpt>
      <trkpt lat="48.69936" lon="1.75373">
        <ele>172</ele>
        <time>2014-03-10T11:52:35.000Z</time>
      </trkpt>
      <trkpt lat="48.69946" lon="1.75367">
        <ele>172</ele>
        <time>2014-03-10T11:52:43.000Z</time>
      </trkpt>
      <trkpt lat="48.69954" lon="1.75364">
        <ele>171.80000305176</ele>
        <time>2014-03-10T11:52:49.000Z</time>
      </trkpt>
      <trkpt lat="48.69966" lon="1.75357">
        <ele>171.80000305176</ele>
        <time>2014-03-10T11:52:57.000Z</time>
      </trkpt>
      <trkpt lat="48.69967" lon="1.75356">
        <ele>171.80000305176</ele>
        <time>2014-03-10T11:52:58.000Z</time>
      </trkpt>
      <trkpt lat="48.69977" lon="1.7535">
        <ele>171.80000305176</ele>
        <time>2014-03-10T11:53:05.000Z</time>
      </trkpt>
      <trkpt lat="48.69986" lon="1.75345">
        <ele>171.80000305176</ele>
        <time>2014-03-10T11:53:12.000Z</time>
      </trkpt>
      <trkpt lat="48.69994" lon="1.75343">
        <ele>171.80000305176</ele>
        <time>2014-03-10T11:53:18.000Z</time>
      </trkpt>
      <trkpt lat="48.70005" lon="1.75339">
        <ele>171.80000305176</ele>
        <time>2014-03-10T11:53:25.000Z</time>
      </trkpt>
      <trkpt lat="48.70011" lon="1.75334">
        <ele>172.19999694824</ele>
        <time>2014-03-10T11:53:30.000Z</time>
      </trkpt>
      <trkpt lat="48.70025" lon="1.7533">
        <ele>172.39999389648</ele>
        <time>2014-03-10T11:53:39.000Z</time>
      </trkpt>
      <trkpt lat="48.70033" lon="1.75325">
        <ele>172.60000610352</ele>
        <time>2014-03-10T11:53:46.000Z</time>
      </trkpt>
      <trkpt lat="48.7004" lon="1.75321">
        <ele>172.80000305176</ele>
        <time>2014-03-10T11:53:52.000Z</time>
      </trkpt>
      <trkpt lat="48.70046" lon="1.7532">
        <ele>173</ele>
        <time>2014-03-10T11:53:57.000Z</time>
      </trkpt>
      <trkpt lat="48.70055" lon="1.75315">
        <ele>173.19999694824</ele>
        <time>2014-03-10T11:54:03.000Z</time>
      </trkpt>
      <trkpt lat="48.70065" lon="1.7531">
        <ele>173.60000610352</ele>
        <time>2014-03-10T11:54:10.000Z</time>
      </trkpt>
      <trkpt lat="48.70072" lon="1.75305">
        <ele>173.80000305176</ele>
        <time>2014-03-10T11:54:16.000Z</time>
      </trkpt>
      <trkpt lat="48.70082" lon="1.75302">
        <ele>174.19999694824</ele>
        <time>2014-03-10T11:54:24.000Z</time>
      </trkpt>
      <trkpt lat="48.70091" lon="1.75298">
        <ele>174.39999389648</ele>
        <time>2014-03-10T11:54:31.000Z</time>
      </trkpt>
      <trkpt lat="48.70098" lon="1.75295">
        <ele>174.60000610352</ele>
        <time>2014-03-10T11:54:36.000Z</time>
      </trkpt>
      <trkpt lat="48.70107" lon="1.7529">
        <ele>175</ele>
        <time>2014-03-10T11:54:43.000Z</time>
      </trkpt>
      <trkpt lat="48.70118" lon="1.75284">
        <ele>175.19999694824</ele>
        <time>2014-03-10T11:54:51.000Z</time>
      </trkpt>
      <trkpt lat="48.70128" lon="1.75279">
        <ele>175.60000610352</ele>
        <time>2014-03-10T11:54:59.000Z</time>
      </trkpt>
      <trkpt lat="48.70141" lon="1.75274">
        <ele>175.80000305176</ele>
        <time>2014-03-10T11:55:08.000Z</time>
      </trkpt>
      <trkpt lat="48.70147" lon="1.75273">
        <ele>175.80000305176</ele>
        <time>2014-03-10T11:55:13.000Z</time>
      </trkpt>
      <trkpt lat="48.70151" lon="1.75269">
        <ele>175.80000305176</ele>
        <time>2014-03-10T11:55:21.000Z</time>
      </trkpt>
      <trkpt lat="48.7016" lon="1.75262">
        <ele>176</ele>
        <time>2014-03-10T11:55:29.000Z</time>
      </trkpt>
      <trkpt lat="48.70165" lon="1.75257">
        <ele>176</ele>
        <time>2014-03-10T11:55:34.000Z</time>
      </trkpt>
      <trkpt lat="48.70177" lon="1.75251">
        <ele>176.39999389648</ele>
        <time>2014-03-10T11:55:42.000Z</time>
      </trkpt>
      <trkpt lat="48.70181" lon="1.7525">
        <ele>176.80000305176</ele>
        <time>2014-03-10T11:55:45.000Z</time>
      </trkpt>
      <trkpt lat="48.70196" lon="1.75243">
        <ele>177.39999389648</ele>
        <time>2014-03-10T11:55:56.000Z</time>
      </trkpt>
      <trkpt lat="48.70198" lon="1.75243">
        <ele>177.39999389648</ele>
        <time>2014-03-10T11:55:57.000Z</time>
      </trkpt>
      <trkpt lat="48.70208" lon="1.75239">
        <ele>178</ele>
        <time>2014-03-10T11:56:04.000Z</time>
      </trkpt>
      <trkpt lat="48.70215" lon="1.75238">
        <ele>178.19999694824</ele>
        <time>2014-03-10T11:56:09.000Z</time>
      </trkpt>
      <trkpt lat="48.70222" lon="1.75239">
        <ele>178.60000610352</ele>
        <time>2014-03-10T11:56:15.000Z</time>
      </trkpt>
      <trkpt lat="48.70235" lon="1.75249">
        <ele>179.19999694824</ele>
        <time>2014-03-10T11:56:25.000Z</time>
      </trkpt>
      <trkpt lat="48.7024" lon="1.75252">
        <ele>179.39999389648</ele>
        <time>2014-03-10T11:56:29.000Z</time>
      </trkpt>
      <trkpt lat="48.7025" lon="1.75262">
        <ele>179.80000305176</ele>
        <time>2014-03-10T11:56:37.000Z</time>
      </trkpt>
      <trkpt lat="48.70253" lon="1.75267">
        <ele>179.80000305176</ele>
        <time>2014-03-10T11:56:41.000Z</time>
      </trkpt>
      <trkpt lat="48.7026" lon="1.75274">
        <ele>180</ele>
        <time>2014-03-10T11:56:47.000Z</time>
      </trkpt>
      <trkpt lat="48.70272" lon="1.7528">
        <ele>180.19999694824</ele>
        <time>2014-03-10T11:56:55.000Z</time>
      </trkpt>
      <trkpt lat="48.70273" lon="1.75282">
        <ele>180.19999694824</ele>
        <time>2014-03-10T11:56:57.000Z</time>
      </trkpt>
      <trkpt lat="48.70282" lon="1.75288">
        <ele>180.39999389648</ele>
        <time>2014-03-10T11:57:04.000Z</time>
      </trkpt>
      <trkpt lat="48.70294" lon="1.75296">
        <ele>180.39999389648</ele>
        <time>2014-03-10T11:57:13.000Z</time>
      </trkpt>
      <trkpt lat="48.70299" lon="1.75304">
        <ele>180.60000610352</ele>
        <time>2014-03-10T11:57:19.000Z</time>
      </trkpt>
      <trkpt lat="48.70307" lon="1.7532">
        <ele>180.60000610352</ele>
        <time>2014-03-10T11:57:28.000Z</time>
      </trkpt>
      <trkpt lat="48.70309" lon="1.75328">
        <ele>180.39999389648</ele>
        <time>2014-03-10T11:57:32.000Z</time>
      </trkpt>
      <trkpt lat="48.70314" lon="1.75339">
        <ele>180.60000610352</ele>
        <time>2014-03-10T11:57:40.000Z</time>
      </trkpt>
      <trkpt lat="48.70319" lon="1.75346">
        <ele>180.60000610352</ele>
        <time>2014-03-10T11:57:46.000Z</time>
      </trkpt>
      <trkpt lat="48.70326" lon="1.7535">
        <ele>180.80000305176</ele>
        <time>2014-03-10T11:57:51.000Z</time>
      </trkpt>
      <trkpt lat="48.70333" lon="1.75356">
        <ele>181</ele>
        <time>2014-03-10T11:57:57.000Z</time>
      </trkpt>
      <trkpt lat="48.70335" lon="1.75358">
        <ele>181</ele>
        <time>2014-03-10T11:57:59.000Z</time>
      </trkpt>
      <trkpt lat="48.70338" lon="1.75359">
        <ele>181</ele>
        <time>2014-03-10T11:58:02.000Z</time>
      </trkpt>
      <trkpt lat="48.70347" lon="1.75369">
        <ele>180.80000305176</ele>
        <time>2014-03-10T11:58:09.000Z</time>
      </trkpt>
      <trkpt lat="48.70347" lon="1.7537">
        <ele>180.80000305176</ele>
        <time>2014-03-10T11:58:10.000Z</time>
      </trkpt>
      <trkpt lat="48.70356" lon="1.7538">
        <ele>180.80000305176</ele>
        <time>2014-03-10T11:58:18.000Z</time>
      </trkpt>
      <trkpt lat="48.70366" lon="1.75391">
        <ele>181</ele>
        <time>2014-03-10T11:58:27.000Z</time>
      </trkpt>
      <trkpt lat="48.70377" lon="1.75398">
        <ele>181</ele>
        <time>2014-03-10T11:58:35.000Z</time>
      </trkpt>
      <trkpt lat="48.70385" lon="1.75402">
        <ele>181.19999694824</ele>
        <time>2014-03-10T11:58:42.000Z</time>
      </trkpt>
      <trkpt lat="48.70395" lon="1.75403">
        <ele>181.19999694824</ele>
        <time>2014-03-10T11:58:50.000Z</time>
      </trkpt>
      <trkpt lat="48.70403" lon="1.75411">
        <ele>181.60000610352</ele>
        <time>2014-03-10T11:58:58.000Z</time>
      </trkpt>
      <trkpt lat="48.70405" lon="1.75412">
        <ele>181.60000610352</ele>
        <time>2014-03-10T11:58:59.000Z</time>
      </trkpt>
      <trkpt lat="48.70413" lon="1.75418">
        <ele>182</ele>
        <time>2014-03-10T11:59:06.000Z</time>
      </trkpt>
      <trkpt lat="48.70425" lon="1.75426">
        <ele>181.60000610352</ele>
        <time>2014-03-10T11:59:14.000Z</time>
      </trkpt>
      <trkpt lat="48.70435" lon="1.75433">
        <ele>181.19999694824</ele>
        <time>2014-03-10T11:59:22.000Z</time>
      </trkpt>
      <trkpt lat="48.70443" lon="1.75439">
        <ele>181</ele>
        <time>2014-03-10T11:59:28.000Z</time>
      </trkpt>
      <trkpt lat="48.70449" lon="1.75445">
        <ele>180.80000305176</ele>
        <time>2014-03-10T11:59:34.000Z</time>
      </trkpt>
      <trkpt lat="48.70455" lon="1.75448">
        <ele>180.60000610352</ele>
        <time>2014-03-10T11:59:40.000Z</time>
      </trkpt>
      <trkpt lat="48.70462" lon="1.75455">
        <ele>180.39999389648</ele>
        <time>2014-03-10T11:59:48.000Z</time>
      </trkpt>
      <trkpt lat="48.70463" lon="1.75455">
        <ele>180.39999389648</ele>
        <time>2014-03-10T11:59:50.000Z</time>
      </trkpt>
      <trkpt lat="48.70469" lon="1.75462">
        <ele>180.39999389648</ele>
        <time>2014-03-10T12:00:12.000Z</time>
      </trkpt>
      <trkpt lat="48.70474" lon="1.75467">
        <ele>180.39999389648</ele>
        <time>2014-03-10T12:00:16.000Z</time>
      </trkpt>
      <trkpt lat="48.70478" lon="1.75472">
        <ele>180.39999389648</ele>
        <time>2014-03-10T12:00:20.000Z</time>
      </trkpt>
      <trkpt lat="48.70482" lon="1.75476">
        <ele>180.39999389648</ele>
        <time>2014-03-10T12:00:25.000Z</time>
      </trkpt>
      <trkpt lat="48.70489" lon="1.75483">
        <ele>180.39999389648</ele>
        <time>2014-03-10T12:00:30.000Z</time>
      </trkpt>
      <trkpt lat="48.70496" lon="1.75492">
        <ele>180.60000610352</ele>
        <time>2014-03-10T12:00:37.000Z</time>
      </trkpt>
      <trkpt lat="48.70498" lon="1.75496">
        <ele>180.80000305176</ele>
        <time>2014-03-10T12:00:40.000Z</time>
      </trkpt>
      <trkpt lat="48.70506" lon="1.75504">
        <ele>180.80000305176</ele>
        <time>2014-03-10T12:00:49.000Z</time>
      </trkpt>
      <trkpt lat="48.70507" lon="1.75505">
        <ele>180.60000610352</ele>
        <time>2014-03-10T12:00:50.000Z</time>
      </trkpt>
      <trkpt lat="48.70517" lon="1.75514">
        <ele>180.39999389648</ele>
        <time>2014-03-10T12:00:58.000Z</time>
      </trkpt>
      <trkpt lat="48.70525" lon="1.75521">
        <ele>180.39999389648</ele>
        <time>2014-03-10T12:01:05.000Z</time>
      </trkpt>
      <trkpt lat="48.70533" lon="1.75529">
        <ele>180.39999389648</ele>
        <time>2014-03-10T12:01:12.000Z</time>
      </trkpt>
      <trkpt lat="48.70535" lon="1.75531">
        <ele>180.39999389648</ele>
        <time>2014-03-10T12:01:14.000Z</time>
      </trkpt>
      <trkpt lat="48.70541" lon="1.75539">
        <ele>180.60000610352</ele>
        <time>2014-03-10T12:01:21.000Z</time>
      </trkpt>
      <trkpt lat="48.70542" lon="1.75541">
        <ele>180.60000610352</ele>
        <time>2014-03-10T12:01:22.000Z</time>
      </trkpt>
      <trkpt lat="48.70552" lon="1.75551">
        <ele>181</ele>
        <time>2014-03-10T12:01:30.000Z</time>
      </trkpt>
      <trkpt lat="48.70564" lon="1.7556">
        <ele>181.19999694824</ele>
        <time>2014-03-10T12:01:40.000Z</time>
      </trkpt>
      <trkpt lat="48.70569" lon="1.75564">
        <ele>181.39999389648</ele>
        <time>2014-03-10T12:01:45.000Z</time>
      </trkpt>
      <trkpt lat="48.70573" lon="1.75569">
        <ele>181.80000305176</ele>
        <time>2014-03-10T12:01:50.000Z</time>
      </trkpt>
      <trkpt lat="48.70574" lon="1.75571">
        <ele>182</ele>
        <time>2014-03-10T12:01:54.000Z</time>
      </trkpt>
      <trkpt lat="48.70583" lon="1.7558">
        <ele>182.60000610352</ele>
        <time>2014-03-10T12:02:09.000Z</time>
      </trkpt>
      <trkpt lat="48.70592" lon="1.75593">
        <ele>182.39999389648</ele>
        <time>2014-03-10T12:02:17.000Z</time>
      </trkpt>
      <trkpt lat="48.70599" lon="1.75605">
        <ele>181.80000305176</ele>
        <time>2014-03-10T12:02:25.000Z</time>
      </trkpt>
      <trkpt lat="48.70604" lon="1.75612">
        <ele>181.60000610352</ele>
        <time>2014-03-10T12:02:30.000Z</time>
      </trkpt>
      <trkpt lat="48.70615" lon="1.75626">
        <ele>180.60000610352</ele>
        <time>2014-03-10T12:02:41.000Z</time>
      </trkpt>
      <trkpt lat="48.70617" lon="1.75628">
        <ele>180.39999389648</ele>
        <time>2014-03-10T12:02:43.000Z</time>
      </trkpt>
      <trkpt lat="48.70622" lon="1.75634">
        <ele>180</ele>
        <time>2014-03-10T12:02:47.000Z</time>
      </trkpt>
      <trkpt lat="48.70627" lon="1.75641">
        <ele>179.39999389648</ele>
        <time>2014-03-10T12:02:53.000Z</time>
      </trkpt>
      <trkpt lat="48.70628" lon="1.75642">
        <ele>179.39999389648</ele>
        <time>2014-03-10T12:02:56.000Z</time>
      </trkpt>
      <trkpt lat="48.70645" lon="1.7562">
        <ele>177.39999389648</ele>
        <time>2014-03-10T12:05:35.000Z</time>
      </trkpt>
      <trkpt lat="48.70648" lon="1.75609">
        <ele>177</ele>
        <time>2014-03-10T12:05:42.000Z</time>
      </trkpt>
      <trkpt lat="48.70652" lon="1.75601">
        <ele>176.60000610352</ele>
        <time>2014-03-10T12:05:49.000Z</time>
      </trkpt>
      <trkpt lat="48.70652" lon="1.756">
        <ele>176.39999389648</ele>
        <time>2014-03-10T12:05:51.000Z</time>
      </trkpt>
      <trkpt lat="48.70656" lon="1.75593">
        <ele>176</ele>
        <time>2014-03-10T12:05:59.000Z</time>
      </trkpt>
      <trkpt lat="48.70657" lon="1.7559">
        <ele>176</ele>
        <time>2014-03-10T12:06:02.000Z</time>
      </trkpt>
      <trkpt lat="48.70662" lon="1.7558">
        <ele>175.19999694824</ele>
        <time>2014-03-10T12:06:12.000Z</time>
      </trkpt>
      <trkpt lat="48.70669" lon="1.75566">
        <ele>174.60000610352</ele>
        <time>2014-03-10T12:06:19.000Z</time>
      </trkpt>
      <trkpt lat="48.70675" lon="1.7555">
        <ele>174</ele>
        <time>2014-03-10T12:06:28.000Z</time>
      </trkpt>
      <trkpt lat="48.70681" lon="1.75538">
        <ele>173.39999389648</ele>
        <time>2014-03-10T12:06:36.000Z</time>
      </trkpt>
      <trkpt lat="48.70688" lon="1.75525">
        <ele>173</ele>
        <time>2014-03-10T12:06:44.000Z</time>
      </trkpt>
      <trkpt lat="48.70689" lon="1.75518">
        <ele>172.80000305176</ele>
        <time>2014-03-10T12:06:49.000Z</time>
      </trkpt>
      <trkpt lat="48.70691" lon="1.75515">
        <ele>172.80000305176</ele>
        <time>2014-03-10T12:06:51.000Z</time>
      </trkpt>
      <trkpt lat="48.70696" lon="1.75503">
        <ele>172.39999389648</ele>
        <time>2014-03-10T12:06:59.000Z</time>
      </trkpt>
      <trkpt lat="48.70699" lon="1.7549">
        <ele>172.19999694824</ele>
        <time>2014-03-10T12:07:07.000Z</time>
      </trkpt>
      <trkpt lat="48.70698" lon="1.75486">
        <ele>172.19999694824</ele>
        <time>2014-03-10T12:07:13.000Z</time>
      </trkpt>
    </trkseg>
  </trk>
</gpx>